Observation data for Romero 11 SSW on 12/10/2018      Previous  Date       Current Mesonet Observations  Soil Data  Daily Summary Page  Observations in Plain Language
KBR1 100600Z 32002KT M02/M08 A3037 RMK A01 T10231082  RH  064%=      5-min Rain = 0
KBR1 100601Z 31003KT M02/M08 A3037 RMK A01 T10231082  RH  064%=      5-min Rain = 0
KBR1 100602Z 31003KT M02/M08 A3037 RMK A01 T10231082  RH  064%=      5-min Rain = 0
KBR1 100603Z 31004KT M02/M08 A3037 RMK A01 T10231082  RH  064%=      5-min Rain = 0
KBR1 100604Z 31004KT M02/M08 A3037 RMK A01 T10211081  RH  064%=      5-min Rain = 0
KBR1 100605Z 32003KT M02/M08 A3037 RMK A01 T10201081  RH  063%=      5-min Rain = 0
KBR1 100606Z 32003KT M02/M08 A3036 RMK A01 T10201081  RH  063%=      5-min Rain = 0
KBR1 100607Z 32003KT M02/M08 A3036 RMK A01 T10191081  RH  063%=      5-min Rain = 0
KBR1 100608Z 32003KT M02/M08 A3036 RMK A01 T10191081  RH  063%=      5-min Rain = 0
KBR1 100609Z 32003KT M02/M08 A3036 RMK A01 T10201081  RH  063%=      5-min Rain = 0
KBR1 100610Z 32003KT M02/M08 A3036 RMK A01 T10201082  RH  063%=      5-min Rain = 0
KBR1 100611Z 32003KT M02/M08 A3036 RMK A01 T10201082  RH  063%=      5-min Rain = 0
KBR1 100612Z 32003KT M02/M08 A3036 RMK A01 T10201081  RH  063%=      5-min Rain = 0
KBR1 100613Z 32004KT M02/M08 A3036 RMK A01 T10211081  RH  063%=      5-min Rain = 0
KBR1 100614Z 32004KT M02/M08 A3036 RMK A01 T10211081  RH  063%=      5-min Rain = 0
KBR1 100615Z 32004KT M02/M08 A3036 RMK A01 T10211081  RH  064%=      5-min Rain = 0
KBR1 100616Z 32004KT M02/M08 A3036 RMK A01 T10211081  RH  063%=      5-min Rain = 0
KBR1 100617Z 32003KT M02/M08 A3036 RMK A01 T10211081  RH  063%=      5-min Rain = 0
KBR1 100618Z 31003KT M02/M08 A3036 RMK A01 T10211081  RH  063%=      5-min Rain = 0
KBR1 100619Z 31003KT M02/M08 A3036 RMK A01 T10211081  RH  063%=      5-min Rain = 0
KBR1 100620Z 31003KT M02/M08 A3036 RMK A01 T10201081  RH  063%=      5-min Rain = 0
KBR1 100621Z 31003KT M02/M08 A3036 RMK A01 T10201081  RH  063%=      5-min Rain = 0
KBR1 100622Z 31003KT M02/M08 A3036 RMK A01 T10201081  RH  063%=      5-min Rain = 0
KBR1 100623Z 31004KT M02/M08 A3036 RMK A01 T10201080  RH  063%=      5-min Rain = 0
KBR1 100624Z 31004KT M02/M08 A3036 RMK A01 T10201080  RH  063%=      5-min Rain = 0
KBR1 100625Z 31004KT M02/M08 A3036 RMK A01 T10191080  RH  063%=      5-min Rain = 0
KBR1 100626Z 31003KT M02/M08 A3036 RMK A01 T10191080  RH  063%=      5-min Rain = 0
KBR1 100627Z 31003KT M02/M08 A3036 RMK A01 T10191080  RH  063%=      5-min Rain = 0
KBR1 100628Z 31003KT M02/M08 A3036 RMK A01 T10181080  RH  063%=      5-min Rain = 0
KBR1 100629Z 31003KT M02/M08 A3036 RMK A01 T10181079  RH  063%=      5-min Rain = 0
KBR1 100630Z 31003KT M02/M08 A3036 RMK A01 T10191080  RH  063%=      5-min Rain = 0
KBR1 100631Z 31003KT M02/M08 A3036 RMK A01 T10191079  RH  063%=      5-min Rain = 0
KBR1 100632Z 31003KT M02/M08 A3036 RMK A01 T10191080  RH  063%=      5-min Rain = 0
KBR1 100633Z 32003KT M02/M08 A3036 RMK A01 T10191079  RH  063%=      5-min Rain = 0
KBR1 100634Z 32003KT M02/M08 A3036 RMK A01 T10191080  RH  063%=      5-min Rain = 0
KBR1 100635Z 32003KT M02/M08 A3036 RMK A01 T10191080  RH  063%=      5-min Rain = 0
KBR1 100636Z 32003KT M02/M08 A3036 RMK A01 T10191080  RH  063%=      5-min Rain = 0
KBR1 100637Z 32003KT M02/M08 A3036 RMK A01 T10191080  RH  063%=      5-min Rain = 0
KBR1 100638Z 31003KT M02/M08 A3036 RMK A01 T10201080  RH  063%=      5-min Rain = 0
KBR1 100639Z 32003KT M02/M08 A3035 RMK A01 T10201080  RH  063%=      5-min Rain = 0
KBR1 100640Z 32003KT M02/M08 A3035 RMK A01 T10201081  RH  063%=      5-min Rain = 0
KBR1 100641Z 32003KT M02/M08 A3035 RMK A01 T10211081  RH  063%=      5-min Rain = 0
KBR1 100642Z 32003KT M02/M08 A3035 RMK A01 T10211081  RH  064%=      5-min Rain = 0
KBR1 100643Z 32003KT M02/M08 A3035 RMK A01 T10211080  RH  064%=      5-min Rain = 0
KBR1 100644Z 32003KT M02/M08 A3035 RMK A01 T10211080  RH  064%=      5-min Rain = 0
KBR1 100645Z 32004KT M02/M08 A3035 RMK A01 T10211081  RH  064%=      5-min Rain = 0
KBR1 100646Z 32003KT M02/M08 A3035 RMK A01 T10211081  RH  064%=      5-min Rain = 0
KBR1 100647Z 32003KT M02/M08 A3035 RMK A01 T10211081  RH  064%=      5-min Rain = 0
KBR1 100648Z 32003KT M02/M08 A3035 RMK A01 T10211081  RH  064%=      5-min Rain = 0
KBR1 100649Z 32003KT M02/M08 A3035 RMK A01 T10211080  RH  064%=      5-min Rain = 0
KBR1 100650Z 32003KT M02/M08 A3035 RMK A01 T10211080  RH  064%=      5-min Rain = 0
KBR1 100651Z 32003KT M02/M08 A3035 RMK A01 T10211080  RH  064%=      5-min Rain = 0
KBR1 100652Z 32003KT M02/M08 A3035 RMK A01 T10211080  RH  064%=      5-min Rain = 0
KBR1 100653Z 32003KT M02/M08 A3035 RMK A01 T10211080  RH  064%=      5-min Rain = 0
KBR1 100654Z 32003KT M02/M08 A3035 RMK A01 T10211080  RH  064%=      5-min Rain = 0
KBR1 100655Z 32004KT M02/M08 A3035 RMK A01 T10211080  RH  064%=      5-min Rain = 0
KBR1 100656Z 32004KT M02/M08 A3035 RMK A01 T10211080  RH  064%=      5-min Rain = 0
KBR1 100657Z 32004KT M02/M08 A3035 RMK A01 T10211080  RH  064%=      5-min Rain = 0
KBR1 100658Z 32004KT M02/M08 A3035 RMK A01 T10211080  RH  064%=      5-min Rain = 0
KBR1 100659Z 32004KT M02/M08 A3035 RMK A01 T10221080  RH  064%=      5-min Rain = 0
KBR1 100700Z 32004KT M02/M08 A3035 RMK A01 T10221080  RH  065%=      5-min Rain = 0
KBR1 100701Z 32004KT M02/M08 A3034 RMK A01 T10231080  RH  065%=      5-min Rain = 0
KBR1 100702Z 32004KT M02/M08 A3034 RMK A01 T10231080  RH  065%=      5-min Rain = 0
KBR1 100703Z 32004KT M02/M08 A3034 RMK A01 T10231080  RH  065%=      5-min Rain = 0
KBR1 100704Z 32004KT M02/M08 A3034 RMK A01 T10241080  RH  066%=      5-min Rain = 0
KBR1 100705Z 32004KT M02/M08 A3034 RMK A01 T10241079  RH  066%=      5-min Rain = 0
KBR1 100706Z 32004KT M02/M08 A3034 RMK A01 T10241080  RH  066%=      5-min Rain = 0
KBR1 100707Z 32004KT M02/M08 A3034 RMK A01 T10241079  RH  066%=      5-min Rain = 0
KBR1 100708Z 31004KT M02/M08 A3034 RMK A01 T10231079  RH  066%=      5-min Rain = 0
KBR1 100709Z 31004KT M02/M08 A3034 RMK A01 T10231079  RH  065%=      5-min Rain = 0
KBR1 100710Z 31004KT M02/M08 A3034 RMK A01 T10221078  RH  065%=      5-min Rain = 0
KBR1 100711Z 31004KT M02/M08 A3034 RMK A01 T10221078  RH  065%=      5-min Rain = 0
KBR1 100712Z 32004KT M02/M08 A3034 RMK A01 T10211078  RH  065%=      5-min Rain = 0
KBR1 100713Z 32004KT M02/M08 A3034 RMK A01 T10211079  RH  065%=      5-min Rain = 0
KBR1 100714Z 32004KT M02/M08 A3034 RMK A01 T10211079  RH  065%=      5-min Rain = 0
KBR1 100715Z 32004KT M02/M08 A3034 RMK A01 T10211078  RH  065%=      5-min Rain = 0
KBR1 100716Z 31004KT M02/M08 A3034 RMK A01 T10211078  RH  065%=      5-min Rain = 0
KBR1 100717Z 31004KT M02/M08 A3034 RMK A01 T10211078  RH  065%=      5-min Rain = 0
KBR1 100718Z 31004KT M02/M08 A3034 RMK A01 T10211078  RH  065%=      5-min Rain = 0
KBR1 100719Z 31004KT M02/M08 A3034 RMK A01 T10211078  RH  065%=      5-min Rain = 0
KBR1 100720Z 31003KT M02/M08 A3034 RMK A01 T10211078  RH  065%=      5-min Rain = 0
KBR1 100721Z 31004KT M02/M08 A3034 RMK A01 T10221078  RH  065%=      5-min Rain = 0
KBR1 100722Z 31003KT M02/M08 A3034 RMK A01 T10211078  RH  065%=      5-min Rain = 0
KBR1 100723Z 30004KT M02/M08 A3034 RMK A01 T10211078  RH  065%=      5-min Rain = 0
KBR1 100724Z 30004KT M02/M08 A3034 RMK A01 T10211078  RH  065%=      5-min Rain = 0
KBR1 100725Z 30003KT M02/M08 A3034 RMK A01 T10211078  RH  065%=      5-min Rain = 0
KBR1 100726Z 30003KT M02/M08 A3034 RMK A01 T10211078  RH  065%=      5-min Rain = 0
KBR1 100727Z 30003KT M02/M08 A3034 RMK A01 T10221078  RH  065%=      5-min Rain = 0
KBR1 100728Z 30003KT M02/M08 A3034 RMK A01 T10221078  RH  066%=      5-min Rain = 0
KBR1 100729Z 30003KT M02/M08 A3034 RMK A01 T10211077  RH  065%=      5-min Rain = 0
KBR1 100730Z 30002KT M02/M08 A3033 RMK A01 T10211078  RH  065%=      5-min Rain = 0
KBR1 100731Z 30002KT M02/M08 A3033 RMK A01 T10201077  RH  065%=      5-min Rain = 0
KBR1 100732Z 30002KT M02/M08 A3033 RMK A01 T10211078  RH  065%=      5-min Rain = 0
KBR1 100733Z 31002KT M02/M08 A3033 RMK A01 T10211078  RH  065%=      5-min Rain = 0
KBR1 100734Z 31002KT M02/M08 A3033 RMK A01 T10211078  RH  065%=      5-min Rain = 0
KBR1 100735Z 31002KT M02/M08 A3033 RMK A01 T10211078  RH  065%=      5-min Rain = 0
KBR1 100736Z 31002KT M02/M08 A3033 RMK A01 T10211078  RH  065%=      5-min Rain = 0
KBR1 100737Z 32002KT M02/M08 A3033 RMK A01 T10221078  RH  065%=      5-min Rain = 0
KBR1 100738Z 31003KT M02/M08 A3033 RMK A01 T10221078  RH  065%=      5-min Rain = 0
KBR1 100739Z 31003KT M02/M08 A3033 RMK A01 T10221079  RH  065%=      5-min Rain = 0
KBR1 100740Z 31003KT M02/M08 A3033 RMK A01 T10221078  RH  065%=      5-min Rain = 0
KBR1 100741Z 30003KT M02/M08 A3033 RMK A01 T10211078  RH  065%=      5-min Rain = 0
KBR1 100742Z 30003KT M02/M08 A3033 RMK A01 T10211078  RH  065%=      5-min Rain = 0
KBR1 100743Z 30003KT M02/M08 A3033 RMK A01 T10221079  RH  065%=      5-min Rain = 0
KBR1 100744Z 30002KT M02/M08 A3033 RMK A01 T10221079  RH  065%=      5-min Rain = 0
KBR1 100745Z 30003KT M02/M08 A3033 RMK A01 T10221079  RH  065%=      5-min Rain = 0
KBR1 100746Z 31003KT M02/M08 A3033 RMK A01 T10231080  RH  065%=      5-min Rain = 0
KBR1 100747Z 32002KT M02/M08 A3033 RMK A01 T10231079  RH  065%=      5-min Rain = 0
KBR1 100748Z 32002KT M02/M08 A3033 RMK A01 T10231080  RH  065%=      5-min Rain = 0
KBR1 100749Z 32003KT M02/M08 A3033 RMK A01 T10241080  RH  065%=      5-min Rain = 0
KBR1 100750Z 32003KT M02/M08 A3032 RMK A01 T10241079  RH  066%=      5-min Rain = 0
KBR1 100751Z 31003KT M02/M08 A3032 RMK A01 T10241080  RH  066%=      5-min Rain = 0
KBR1 100752Z 32003KT M03/M08 A3032 RMK A01 T10261081  RH  066%=      5-min Rain = 0
KBR1 100753Z 32003KT M03/M08 A3032 RMK A01 T10271081  RH  066%=      5-min Rain = 0
KBR1 100754Z 33002KT M03/M08 A3033 RMK A01 T10281081  RH  067%=      5-min Rain = 0
KBR1 100755Z 32003KT M03/M08 A3033 RMK A01 T10291081  RH  067%=      5-min Rain = 0
KBR1 100756Z 32003KT M03/M08 A3033 RMK A01 T10291080  RH  068%=      5-min Rain = 0
KBR1 100757Z 32003KT M03/M08 A3033 RMK A01 T10291080  RH  068%=      5-min Rain = 0
KBR1 100758Z 32003KT M03/M08 A3033 RMK A01 T10281080  RH  068%=      5-min Rain = 0
KBR1 100759Z 32003KT M03/M08 A3033 RMK A01 T10291080  RH  068%=      5-min Rain = 0
KBR1 100800Z 32003KT M03/M08 A3033 RMK A01 T10291080  RH  068%=      5-min Rain = 0
KBR1 100801Z 32003KT M03/M08 A3033 RMK A01 T10291080  RH  068%=      5-min Rain = 0
KBR1 100802Z 32003KT M03/M08 A3033 RMK A01 T10291081  RH  068%=      5-min Rain = 0
KBR1 100803Z 31003KT M03/M08 A3033 RMK A01 T10291081  RH  068%=      5-min Rain = 0
KBR1 100804Z 31003KT M03/M08 A3033 RMK A01 T10301080  RH  068%=      5-min Rain = 0
KBR1 100805Z 30004KT M03/M08 A3033 RMK A01 T10301081  RH  068%=      5-min Rain = 0
KBR1 100806Z 30004KT M03/M08 A3033 RMK A01 T10301081  RH  068%=      5-min Rain = 0
KBR1 100807Z 30004KT M03/M08 A3033 RMK A01 T10311080  RH  069%=      5-min Rain = 0
KBR1 100808Z 30004KT M03/M08 A3033 RMK A01 T10311080  RH  069%=      5-min Rain = 0
KBR1 100809Z 30004KT M03/M08 A3033 RMK A01 T10311080  RH  069%=      5-min Rain = 0
KBR1 100810Z 30004KT M03/M08 A3033 RMK A01 T10311080  RH  069%=      5-min Rain = 0
KBR1 100811Z 30003KT M03/M08 A3033 RMK A01 T10311079  RH  069%=      5-min Rain = 0
KBR1 100812Z 30004KT M03/M08 A3033 RMK A01 T10311079  RH  070%=      5-min Rain = 0
KBR1 100813Z 30003KT M03/M08 A3033 RMK A01 T10321079  RH  070%=      5-min Rain = 0
KBR1 100814Z 30003KT M03/M08 A3033 RMK A01 T10321079  RH  070%=      5-min Rain = 0
KBR1 100815Z 30003KT M03/M08 A3033 RMK A01 T10321079  RH  070%=      5-min Rain = 0
KBR1 100816Z 30003KT M03/M08 A3033 RMK A01 T10331079  RH  070%=      5-min Rain = 0
KBR1 100817Z 30002KT M03/M08 A3033 RMK A01 T10331079  RH  070%=      5-min Rain = 0
KBR1 100818Z 30002KT M03/M08 A3033 RMK A01 T10321079  RH  070%=      5-min Rain = 0
KBR1 100819Z 30002KT M03/M08 A3033 RMK A01 T10321079  RH  070%=      5-min Rain = 0
KBR1 100820Z 29003KT M03/M08 A3033 RMK A01 T10321079  RH  070%=      5-min Rain = 0
KBR1 100821Z 29002KT M03/M08 A3033 RMK A01 T10311079  RH  070%=      5-min Rain = 0
KBR1 100822Z 30003KT M03/M08 A3033 RMK A01 T10311079  RH  070%=      5-min Rain = 0
KBR1 100823Z 30003KT M03/M08 A3032 RMK A01 T10311079  RH  070%=      5-min Rain = 0
KBR1 100824Z 31003KT M03/M08 A3032 RMK A01 T10311078  RH  070%=      5-min Rain = 0
KBR1 100825Z 31003KT M03/M08 A3032 RMK A01 T10301078  RH  069%=      5-min Rain = 0
KBR1 100826Z 31003KT M03/M08 A3032 RMK A01 T10301079  RH  069%=      5-min Rain = 0
KBR1 100827Z 31003KT M03/M08 A3032 RMK A01 T10301079  RH  069%=      5-min Rain = 0
KBR1 100828Z 31003KT M03/M08 A3032 RMK A01 T10301080  RH  069%=      5-min Rain = 0
KBR1 100829Z 32003KT M03/M08 A3032 RMK A01 T10301080  RH  069%=      5-min Rain = 0
KBR1 100830Z 31004KT M03/M08 A3032 RMK A01 T10311080  RH  069%=      5-min Rain = 0
KBR1 100831Z 31004KT M03/M08 A3032 RMK A01 T10311080  RH  069%=      5-min Rain = 0
KBR1 100832Z 31003KT M03/M08 A3032 RMK A01 T10301080  RH  069%=      5-min Rain = 0
KBR1 100833Z 31003KT M03/M08 A3033 RMK A01 T10301080  RH  068%=      5-min Rain = 0
KBR1 100834Z 32004KT M03/M08 A3033 RMK A01 T10311081  RH  068%=      5-min Rain = 0
KBR1 100835Z 32004KT M03/M08 A3033 RMK A01 T10311081  RH  068%=      5-min Rain = 0
KBR1 100836Z 31004KT M03/M08 A3032 RMK A01 T10311081  RH  069%=      5-min Rain = 0
KBR1 100837Z 32004KT M03/M08 A3032 RMK A01 T10311081  RH  069%=      5-min Rain = 0
KBR1 100838Z 32004KT M03/M08 A3032 RMK A01 T10301080  RH  069%=      5-min Rain = 0
KBR1 100839Z 32003KT M03/M08 A3032 RMK A01 T10301080  RH  068%=      5-min Rain = 0
KBR1 100840Z 32004KT M03/M08 A3032 RMK A01 T10301080  RH  068%=      5-min Rain = 0
KBR1 100841Z 32004KT M03/M08 A3032 RMK A01 T10301080  RH  068%=      5-min Rain = 0
KBR1 100842Z 32004KT M03/M08 A3032 RMK A01 T10291080  RH  068%=      5-min Rain = 0
KBR1 100843Z 32004KT M03/M08 A3032 RMK A01 T10281079  RH  068%=      5-min Rain = 0
KBR1 100844Z 32004KT M03/M08 A3032 RMK A01 T10271079  RH  067%=      5-min Rain = 0
KBR1 100845Z 32004KT M03/M08 A3032 RMK A01 T10261079  RH  067%=      5-min Rain = 0
KBR1 100846Z 31004KT M03/M08 A3032 RMK A01 T10261079  RH  067%=      5-min Rain = 0
KBR1 100847Z 31005KT M03/M08 A3032 RMK A01 T10261079  RH  066%=      5-min Rain = 0
KBR1 100848Z 31005KT M03/M08 A3032 RMK A01 T10251080  RH  066%=      5-min Rain = 0
KBR1 100849Z 31005KT M03/M08 A3032 RMK A01 T10251080  RH  066%=      5-min Rain = 0
KBR1 100850Z 31004KT M03/M08 A3032 RMK A01 T10251080  RH  066%=      5-min Rain = 0
KBR1 100851Z 31004KT M02/M08 A3032 RMK A01 T10241080  RH  066%=      5-min Rain = 0
KBR1 100852Z 31005KT M02/M08 A3032 RMK A01 T10231079  RH  066%=      5-min Rain = 0
KBR1 100853Z 32004KT M02/M08 A3032 RMK A01 T10231079  RH  065%=      5-min Rain = 0
KBR1 100854Z 32005KT M02/M08 A3032 RMK A01 T10221079  RH  065%=      5-min Rain = 0
KBR1 100855Z 32004KT M02/M08 A3032 RMK A01 T10221079  RH  065%=      5-min Rain = 0
KBR1 100856Z 32004KT M02/M08 A3032 RMK A01 T10221078  RH  065%=      5-min Rain = 0
KBR1 100857Z 32004KT M02/M08 A3032 RMK A01 T10231079  RH  066%=      5-min Rain = 0
KBR1 100858Z 32004KT M02/M08 A3032 RMK A01 T10241079  RH  066%=      5-min Rain = 0
KBR1 100859Z 32004KT M02/M08 A3032 RMK A01 T10241079  RH  066%=      5-min Rain = 0
KBR1 100900Z 32005KT M03/M08 A3032 RMK A01 T10251079  RH  066%=      5-min Rain = 0
KBR1 100901Z 32005KT M02/M08 A3032 RMK A01 T10241079  RH  066%=      5-min Rain = 0
KBR1 100902Z 32004KT M03/M08 A3032 RMK A01 T10251079  RH  066%=      5-min Rain = 0
KBR1 100903Z 32005KT M03/M08 A3032 RMK A01 T10251079  RH  066%=      5-min Rain = 0
KBR1 100904Z 32004KT M03/M08 A3032 RMK A01 T10251079  RH  066%=      5-min Rain = 0
KBR1 100905Z 32005KT M03/M08 A3032 RMK A01 T10251079  RH  066%=      5-min Rain = 0
KBR1 100906Z 32005KT M03/M08 A3032 RMK A01 T10251079  RH  067%=      5-min Rain = 0
KBR1 100907Z 32005KT M03/M08 A3032 RMK A01 T10261079  RH  067%=      5-min Rain = 0
KBR1 100908Z 32005KT M03/M08 A3032 RMK A01 T10261079  RH  067%=      5-min Rain = 0
KBR1 100909Z 32004KT M03/M08 A3032 RMK A01 T10261079  RH  067%=      5-min Rain = 0
KBR1 100910Z 32004KT M03/M08 A3032 RMK A01 T10261079  RH  067%=      5-min Rain = 0
KBR1 100911Z 32004KT M03/M08 A3032 RMK A01 T10261079  RH  067%=      5-min Rain = 0
KBR1 100912Z 32004KT M03/M08 A3032 RMK A01 T10251079  RH  067%=      5-min Rain = 0
KBR1 100913Z 31004KT M02/M08 A3032 RMK A01 T10241078  RH  066%=      5-min Rain = 0
KBR1 100914Z 31004KT M02/M08 A3032 RMK A01 T10221078  RH  066%=      5-min Rain = 0
KBR1 100915Z 30004KT M02/M08 A3032 RMK A01 T10201078  RH  065%=      5-min Rain = 0
KBR1 100916Z 30003KT M02/M08 A3032 RMK A01 T10191078  RH  064%=      5-min Rain = 0
KBR1 100917Z 30003KT M02/M08 A3032 RMK A01 T10201080  RH  063%=      5-min Rain = 0
KBR1 100918Z 30003KT M02/M08 A3032 RMK A01 T10231083  RH  064%=      5-min Rain = 0
KBR1 100919Z 29003KT M03/M08 A3032 RMK A01 T10251082  RH  065%=      5-min Rain = 0
KBR1 100920Z 29003KT M03/M08 A3032 RMK A01 T10261081  RH  066%=      5-min Rain = 0
KBR1 100921Z 29004KT M03/M08 A3032 RMK A01 T10261080  RH  066%=      5-min Rain = 0
KBR1 100922Z 28003KT M03/M08 A3032 RMK A01 T10261079  RH  066%=      5-min Rain = 0
KBR1 100923Z 27002KT M02/M08 A3032 RMK A01 T10241079  RH  066%=      5-min Rain = 0
KBR1 100924Z 27003KT M02/M08 A3032 RMK A01 T10241079  RH  066%=      5-min Rain = 0
KBR1 100925Z 27002KT M02/M08 A3032 RMK A01 T10231079  RH  066%=      5-min Rain = 0
KBR1 100926Z 28002KT M02/M08 A3032 RMK A01 T10241079  RH  066%=      5-min Rain = 0
KBR1 100927Z 28002KT M03/M08 A3032 RMK A01 T10251080  RH  066%=      5-min Rain = 0
KBR1 100928Z 29002KT M03/M08 A3032 RMK A01 T10271081  RH  066%=      5-min Rain = 0
KBR1 100929Z 29002KT M03/M08 A3032 RMK A01 T10281081  RH  067%=      5-min Rain = 0
KBR1 100930Z 29002KT M03/M08 A3032 RMK A01 T10291081  RH  067%=      5-min Rain = 0
KBR1 100931Z 29002KT M03/M08 A3032 RMK A01 T10301081  RH  068%=      5-min Rain = 0
KBR1 100932Z 28002KT M03/M08 A3032 RMK A01 T10311081  RH  068%=      5-min Rain = 0
KBR1 100933Z 29002KT M03/M08 A3032 RMK A01 T10311081  RH  069%=      5-min Rain = 0
KBR1 100934Z 29001KT M03/M08 A3032 RMK A01 T10311080  RH  069%=      5-min Rain = 0
KBR1 100935Z 28001KT M03/M08 A3032 RMK A01 T10301079  RH  069%=      5-min Rain = 0
KBR1 100936Z 28001KT M03/M08 A3032 RMK A01 T10301079  RH  069%=      5-min Rain = 0
KBR1 100937Z 27001KT M03/M08 A3032 RMK A01 T10291079  RH  069%=      5-min Rain = 0
KBR1 100938Z 27001KT M03/M08 A3032 RMK A01 T10291079  RH  068%=      5-min Rain = 0
KBR1 100939Z 28002KT M03/M08 A3032 RMK A01 T10291079  RH  068%=      5-min Rain = 0
KBR1 100940Z 29002KT M03/M08 A3032 RMK A01 T10291079  RH  068%=      5-min Rain = 0
KBR1 100941Z 29002KT M03/M08 A3032 RMK A01 T10281078  RH  068%=      5-min Rain = 0
KBR1 100942Z 28002KT M03/M08 A3032 RMK A01 T10281079  RH  068%=      5-min Rain = 0
KBR1 100943Z 28002KT M03/M08 A3032 RMK A01 T10281079  RH  068%=      5-min Rain = 0
KBR1 100944Z 27002KT M03/M08 A3032 RMK A01 T10281079  RH  068%=      5-min Rain = 0
KBR1 100945Z 27002KT M03/M08 A3032 RMK A01 T10271079  RH  068%=      5-min Rain = 0
KBR1 100946Z 26002KT M03/M08 A3032 RMK A01 T10271079  RH  067%=      5-min Rain = 0
KBR1 100947Z 26003KT M03/M08 A3032 RMK A01 T10271079  RH  067%=      5-min Rain = 0
KBR1 100948Z 25003KT M03/M08 A3032 RMK A01 T10261079  RH  067%=      5-min Rain = 0
KBR1 100949Z 26003KT M03/M08 A3032 RMK A01 T10271081  RH  067%=      5-min Rain = 0
KBR1 100950Z 26003KT M03/M08 A3032 RMK A01 T10281081  RH  067%=      5-min Rain = 0
KBR1 100951Z 27003KT M03/M08 A3032 RMK A01 T10281080  RH  067%=      5-min Rain = 0
KBR1 100952Z 26002KT M03/M08 A3032 RMK A01 T10301082  RH  067%=      5-min Rain = 0
KBR1 100953Z 25002KT M03/M08 A3032 RMK A01 T10321084  RH  068%=      5-min Rain = 0
KBR1 100954Z 25003KT M03/M08 A3032 RMK A01 T10331083  RH  069%=      5-min Rain = 0
KBR1 100955Z 26003KT M03/M08 A3032 RMK A01 T10341083  RH  069%=      5-min Rain = 0
KBR1 100956Z 26003KT M03/M08 A3032 RMK A01 T10331081  RH  069%=      5-min Rain = 0
KBR1 100957Z 27003KT M03/M08 A3032 RMK A01 T10331081  RH  070%=      5-min Rain = 0
KBR1 100958Z 28003KT M03/M08 A3032 RMK A01 T10331081  RH  069%=      5-min Rain = 0
KBR1 100959Z 28003KT M03/M08 A3032 RMK A01 T10331080  RH  070%=      5-min Rain = 0
KBR1 101000Z 27003KT M03/M08 A3032 RMK A01 T10321080  RH  070%=      5-min Rain = 0
KBR1 101001Z 28003KT M03/M08 A3032 RMK A01 T10311079  RH  069%=      5-min Rain = 0
KBR1 101002Z 28003KT M03/M08 A3032 RMK A01 T10311079  RH  069%=      5-min Rain = 0
KBR1 101003Z 28003KT M03/M08 A3032 RMK A01 T10301080  RH  069%=      5-min Rain = 0
KBR1 101004Z 28003KT M03/M08 A3032 RMK A01 T10301080  RH  069%=      5-min Rain = 0
KBR1 101005Z 28004KT M03/M08 A3032 RMK A01 T10301080  RH  068%=      5-min Rain = 0
KBR1 101006Z 28004KT M03/M08 A3032 RMK A01 T10311081  RH  068%=      5-min Rain = 0
KBR1 101007Z 28004KT M03/M08 A3032 RMK A01 T10321082  RH  069%=      5-min Rain = 0
KBR1 101008Z 29005KT M03/M08 A3031 RMK A01 T10331082  RH  069%=      5-min Rain = 0
KBR1 101009Z 29005KT M03/M08 A3031 RMK A01 T10341083  RH  069%=      5-min Rain = 0
KBR1 101010Z 29005KT M04/M08 A3031 RMK A01 T10361083  RH  070%=      5-min Rain = 0
KBR1 101011Z 30004KT M04/M08 A3031 RMK A01 T10371084  RH  070%=      5-min Rain = 0
KBR1 101012Z 30004KT M04/M09 A3031 RMK A01 T10391085  RH  070%=      5-min Rain = 0
KBR1 101013Z 30003KT M04/M09 A3031 RMK A01 T10411086  RH  071%=      5-min Rain = 0
KBR1 101014Z 30003KT M04/M09 A3031 RMK A01 T10431086  RH  072%=      5-min Rain = 0
KBR1 101015Z 30003KT M04/M09 A3031 RMK A01 T10441085  RH  073%=      5-min Rain = 0
KBR1 101016Z 30003KT M04/M08 A3031 RMK A01 T10441084  RH  073%=      5-min Rain = 0
KBR1 101017Z 30003KT M04/M08 A3031 RMK A01 T10441084  RH  073%=      5-min Rain = 0
KBR1 101018Z 30002KT M04/M08 A3031 RMK A01 T10441084  RH  074%=      5-min Rain = 0
KBR1 101019Z 30003KT M04/M08 A3031 RMK A01 T10441084  RH  074%=      5-min Rain = 0
KBR1 101020Z 30003KT M04/M08 A3031 RMK A01 T10441084  RH  074%=      5-min Rain = 0
KBR1 101021Z 31003KT M04/M08 A3031 RMK A01 T10431083  RH  074%=      5-min Rain = 0
KBR1 101022Z 31003KT M04/M08 A3031 RMK A01 T10441084  RH  074%=      5-min Rain = 0
KBR1 101023Z 31003KT M04/M08 A3031 RMK A01 T10441083  RH  074%=      5-min Rain = 0
KBR1 101024Z 31003KT M05/M08 A3031 RMK A01 T10451084  RH  074%=      5-min Rain = 0
KBR1 101025Z 31003KT M05/M08 A3031 RMK A01 T10451084  RH  074%=      5-min Rain = 0
KBR1 101026Z 31002KT M05/M08 A3031 RMK A01 T10461084  RH  074%=      5-min Rain = 0
KBR1 101027Z 31002KT M05/M09 A3031 RMK A01 T10471085  RH  075%=      5-min Rain = 0
KBR1 101028Z 31002KT M05/M08 A3031 RMK A01 T10471084  RH  075%=      5-min Rain = 0
KBR1 101029Z 31003KT M05/M08 A3031 RMK A01 T10471084  RH  075%=      5-min Rain = 0
KBR1 101030Z 31002KT M05/M08 A3031 RMK A01 T10481084  RH  076%=      5-min Rain = 0
KBR1 101031Z 31002KT M05/M08 A3031 RMK A01 T10481084  RH  076%=      5-min Rain = 0
KBR1 101032Z 32002KT M05/M08 A3031 RMK A01 T10481083  RH  076%=      5-min Rain = 0
KBR1 101033Z 32002KT M05/M08 A3031 RMK A01 T10481083  RH  076%=      5-min Rain = 0
KBR1 101034Z 32002KT M05/M08 A3031 RMK A01 T10481084  RH  076%=      5-min Rain = 0
KBR1 101035Z 32002KT M05/M08 A3031 RMK A01 T10481083  RH  076%=      5-min Rain = 0
KBR1 101036Z 32002KT M05/M08 A3031 RMK A01 T10471082  RH  076%=      5-min Rain = 0
KBR1 101037Z 32002KT M05/M08 A3031 RMK A01 T10461082  RH  076%=      5-min Rain = 0
KBR1 101038Z 32002KT M05/M08 A3031 RMK A01 T10451082  RH  076%=      5-min Rain = 0
KBR1 101039Z 32002KT M05/M08 A3031 RMK A01 T10451082  RH  075%=      5-min Rain = 0
KBR1 101040Z 33002KT M04/M08 A3031 RMK A01 T10441081  RH  075%=      5-min Rain = 0
KBR1 101041Z 33002KT M04/M08 A3031 RMK A01 T10431081  RH  075%=      5-min Rain = 0
KBR1 101042Z 33001KT M04/M08 A3031 RMK A01 T10421081  RH  074%=      5-min Rain = 0
KBR1 101043Z 33001KT M04/M08 A3031 RMK A01 T10411081  RH  074%=      5-min Rain = 0
KBR1 101044Z 33000KT M04/M08 A3031 RMK A01 T10401081  RH  073%=      5-min Rain = 0
KBR1 101045Z 00000KT M04/M08 A3031 RMK A01 T10391080  RH  073%=      5-min Rain = 0
KBR1 101046Z 00000KT M04/M08 A3031 RMK A01 T10381080  RH  073%=      5-min Rain = 0
KBR1 101047Z 00000KT M04/M08 A3031 RMK A01 T10371080  RH  072%=      5-min Rain = 0
KBR1 101048Z 00000KT M04/M08 A3031 RMK A01 T10371081  RH  072%=      5-min Rain = 0
KBR1 101049Z 00000KT M04/M08 A3031 RMK A01 T10371081  RH  071%=      5-min Rain = 0
KBR1 101050Z 00000KT M04/M08 A303 RMK A01 T10361081  RH  071%=      5-min Rain = 0
KBR1 101051Z 00000KT M04/M08 A303 RMK A01 T10361081  RH  071%=      5-min Rain = 0
KBR1 101052Z 00000KT M04/M08 A303 RMK A01 T10351081  RH  071%=      5-min Rain = 0
KBR1 101053Z 00000KT M04/M08 A303 RMK A01 T10351081  RH  071%=      5-min Rain = 0
KBR1 101054Z 00000KT M04/M08 A303 RMK A01 T10351081  RH  070%=      5-min Rain = 0
KBR1 101055Z 00000KT M03/M08 A303 RMK A01 T10341081  RH  070%=      5-min Rain = 0
KBR1 101056Z 00000KT M03/M08 A303 RMK A01 T10341080  RH  070%=      5-min Rain = 0
KBR1 101057Z 00000KT M03/M08 A303 RMK A01 T10341080  RH  070%=      5-min Rain = 0
KBR1 101058Z 00000KT M03/M08 A303 RMK A01 T10331080  RH  070%=      5-min Rain = 0
KBR1 101059Z 00000KT M03/M08 A303 RMK A01 T10321080  RH  070%=      5-min Rain = 0
KBR1 101100Z 00000KT M03/M08 A303 RMK A01 T10321080  RH  069%=      5-min Rain = 0
KBR1 101101Z 32000KT M03/M08 A303 RMK A01 T10341082  RH  069%=      5-min Rain = 0
KBR1 101102Z 20002KT M04/M08 A303 RMK A01 T10351084  RH  069%=      5-min Rain = 0
KBR1 101103Z 21002KT M04/M09 A303 RMK A01 T10381086  RH  069%=      5-min Rain = 0
KBR1 101104Z 21002KT M04/M09 A303 RMK A01 T10401086  RH  070%=      5-min Rain = 0
KBR1 101105Z 21002KT M04/M09 A303 RMK A01 T10421087  RH  071%=      5-min Rain = 0
KBR1 101106Z 21001KT M04/M09 A303 RMK A01 T10431087  RH  072%=      5-min Rain = 0
KBR1 101107Z 21001KT M04/M09 A303 RMK A01 T10441087  RH  072%=      5-min Rain = 0
KBR1 101108Z 21001KT M05/M09 A303 RMK A01 T10451087  RH  073%=      5-min Rain = 0
KBR1 101109Z 21001KT M05/M09 A303 RMK A01 T10451086  RH  073%=      5-min Rain = 0
KBR1 101110Z 21001KT M05/M09 A303 RMK A01 T10461087  RH  073%=      5-min Rain = 0
KBR1 101111Z 22001KT M05/M09 A303 RMK A01 T10471087  RH  073%=      5-min Rain = 0
KBR1 101112Z 23002KT M05/M09 A303 RMK A01 T10471087  RH  074%=      5-min Rain = 0
KBR1 101113Z 24002KT M05/M09 A303 RMK A01 T10471086  RH  074%=      5-min Rain = 0
KBR1 101114Z 25002KT M05/M09 A303 RMK A01 T10471085  RH  075%=      5-min Rain = 0
KBR1 101115Z 26001KT M05/M09 A303 RMK A01 T10471085  RH  074%=      5-min Rain = 0
KBR1 101116Z 28001KT M05/M09 A303 RMK A01 T10471086  RH  074%=      5-min Rain = 0
KBR1 101117Z 28002KT M05/M09 A303 RMK A01 T10481086  RH  075%=      5-min Rain = 0
KBR1 101118Z 28002KT M05/M09 A303 RMK A01 T10491087  RH  074%=      5-min Rain = 0
KBR1 101119Z 29002KT M05/M09 A303 RMK A01 T10491087  RH  075%=      5-min Rain = 0
KBR1 101120Z 29002KT M05/M09 A303 RMK A01 T10501087  RH  075%=      5-min Rain = 0
KBR1 101121Z 29002KT M05/M09 A303 RMK A01 T10501087  RH  076%=      5-min Rain = 0
KBR1 101122Z 30002KT M05/M09 A303 RMK A01 T10511087  RH  076%=      5-min Rain = 0
KBR1 101123Z 30002KT M05/M09 A303 RMK A01 T10511086  RH  076%=      5-min Rain = 0
KBR1 101124Z 30002KT M05/M09 A303 RMK A01 T10501086  RH  076%=      5-min Rain = 0
KBR1 101125Z 29002KT M05/M09 A303 RMK A01 T10501085  RH  077%=      5-min Rain = 0
KBR1 101126Z 29002KT M05/M08 A303 RMK A01 T10491084  RH  077%=      5-min Rain = 0
KBR1 101127Z 29002KT M05/M08 A303 RMK A01 T10481084  RH  076%=      5-min Rain = 0
KBR1 101128Z 29002KT M05/M09 A303 RMK A01 T10481085  RH  075%=      5-min Rain = 0
KBR1 101129Z 29002KT M05/M09 A303 RMK A01 T10481086  RH  075%=      5-min Rain = 0
KBR1 101130Z 30002KT M05/M09 A303 RMK A01 T10491087  RH  075%=      5-min Rain = 0
KBR1 101131Z 30002KT M05/M09 A303 RMK A01 T10501086  RH  076%=      5-min Rain = 0
KBR1 101132Z 30002KT M05/M09 A303 RMK A01 T10501086  RH  076%=      5-min Rain = 0
KBR1 101133Z 30002KT M05/M09 A303 RMK A01 T10501086  RH  076%=      5-min Rain = 0
KBR1 101134Z 30002KT M05/M09 A303 RMK A01 T10511087  RH  076%=      5-min Rain = 0
KBR1 101135Z 31002KT M05/M09 A303 RMK A01 T10511087  RH  076%=      5-min Rain = 0
KBR1 101136Z 31002KT M05/M09 A303 RMK A01 T10521087  RH  076%=      5-min Rain = 0
KBR1 101137Z 31003KT M05/M09 A303 RMK A01 T10531089  RH  076%=      5-min Rain = 0
KBR1 101138Z 31003KT M06/M09 A303 RMK A01 T10551090  RH  076%=      5-min Rain = 0
KBR1 101139Z 31003KT M06/M09 A3031 RMK A01 T10561090  RH  077%=      5-min Rain = 0
KBR1 101140Z 31003KT M06/M09 A3031 RMK A01 T10551089  RH  077%=      5-min Rain = 0
KBR1 101141Z 31003KT M05/M09 A3031 RMK A01 T10541087  RH  077%=      5-min Rain = 0
KBR1 101142Z 31003KT M05/M09 A3031 RMK A01 T10531087  RH  077%=      5-min Rain = 0
KBR1 101143Z 32003KT M05/M09 A3031 RMK A01 T10531088  RH  076%=      5-min Rain = 0
KBR1 101144Z 32003KT M05/M09 A3031 RMK A01 T10531089  RH  076%=      5-min Rain = 0
KBR1 101145Z 31003KT M05/M09 A3031 RMK A01 T10541089  RH  076%=      5-min Rain = 0
KBR1 101146Z 31003KT M06/M09 A3031 RMK A01 T10551090  RH  076%=      5-min Rain = 0
KBR1 101147Z 32003KT M06/M09 A3031 RMK A01 T10551090  RH  077%=      5-min Rain = 0
KBR1 101148Z 32003KT M06/M09 A3031 RMK A01 T10551088  RH  078%=      5-min Rain = 0
KBR1 101149Z 33003KT M05/M09 A3031 RMK A01 T10531086  RH  078%=      5-min Rain = 0
KBR1 101150Z 32002KT M05/M09 A3031 RMK A01 T10531087  RH  077%=      5-min Rain = 0
KBR1 101151Z 32002KT M05/M09 A3031 RMK A01 T10531088  RH  077%=      5-min Rain = 0
KBR1 101152Z 32002KT M05/M09 A3031 RMK A01 T10531087  RH  077%=      5-min Rain = 0
KBR1 101153Z 32002KT M05/M09 A3031 RMK A01 T10521086  RH  077%=      5-min Rain = 0
KBR1 101154Z 32002KT M05/M09 A3031 RMK A01 T10511085  RH  077%=      5-min Rain = 0
KBR1 101155Z 32002KT M05/M08 A3031 RMK A01 T10501084  RH  077%=      5-min Rain = 0
KBR1 101156Z 32002KT M05/M08 A3031 RMK A01 T10481084  RH  076%=      5-min Rain = 0
KBR1 101157Z 32002KT M05/M08 A3031 RMK A01 T10481084  RH  076%=      5-min Rain = 0
KBR1 101158Z 32002KT M05/M08 A3031 RMK A01 T10471084  RH  075%=      5-min Rain = 0
KBR1 101159Z 31002KT M05/M08 A3031 RMK A01 T10471084  RH  075%=      5-min Rain = 0
KBR1 101200Z 32002KT M05/M08 A3031 RMK A01 T10461084  RH  075%=      5-min Rain = 0
KBR1 101201Z 32002KT M05/M08 A3031 RMK A01 T10451083  RH  074%=      5-min Rain = 0
KBR1 101202Z 32003KT M04/M08 A3031 RMK A01 T10441083  RH  074%=      5-min Rain = 0
KBR1 101203Z 32003KT M04/M08 A3031 RMK A01 T10431084  RH  074%=      5-min Rain = 0
KBR1 101204Z 32002KT M04/M08 A3031 RMK A01 T10431084  RH  073%=      5-min Rain = 0
KBR1 101205Z 32002KT M04/M08 A3031 RMK A01 T10431084  RH  073%=      5-min Rain = 0
KBR1 101206Z 31001KT M04/M08 A3031 RMK A01 T10421083  RH  073%=      5-min Rain = 0
KBR1 101207Z 31001KT M04/M08 A3031 RMK A01 T10411082  RH  073%=      5-min Rain = 0
KBR1 101208Z 31001KT M04/M08 A3031 RMK A01 T10391082  RH  072%=      5-min Rain = 0
KBR1 101209Z 32002KT M04/M08 A3031 RMK A01 T10381082  RH  072%=      5-min Rain = 0
KBR1 101210Z 32002KT M04/M08 A3031 RMK A01 T10371081  RH  071%=      5-min Rain = 0
KBR1 101211Z 33002KT M04/M08 A3031 RMK A01 T10361082  RH  071%=      5-min Rain = 0
KBR1 101212Z 33002KT M04/M08 A3031 RMK A01 T10361082  RH  070%=      5-min Rain = 0
KBR1 101213Z 33001KT M04/M08 A3031 RMK A01 T10351082  RH  070%=      5-min Rain = 0
KBR1 101214Z 33002KT M04/M08 A3031 RMK A01 T10351082  RH  070%=      5-min Rain = 0
KBR1 101215Z 34002KT M04/M08 A3031 RMK A01 T10351083  RH  069%=      5-min Rain = 0
KBR1 101216Z 34002KT M04/M08 A3031 RMK A01 T10361084  RH  069%=      5-min Rain = 0
KBR1 101217Z 35002KT M04/M08 A3031 RMK A01 T10361084  RH  070%=      5-min Rain = 0
KBR1 101218Z 36001KT M04/M08 A3031 RMK A01 T10371084  RH  070%=      5-min Rain = 0
KBR1 101219Z 35001KT M04/M08 A3031 RMK A01 T10371083  RH  070%=      5-min Rain = 0
KBR1 101220Z 34001KT M04/M08 A3031 RMK A01 T10351082  RH  070%=      5-min Rain = 0
KBR1 101221Z 34001KT M03/M08 A3031 RMK A01 T10341082  RH  070%=      5-min Rain = 0
KBR1 101222Z 33001KT M03/M08 A3031 RMK A01 T10341083  RH  069%=      5-min Rain = 0
KBR1 101223Z 32001KT M04/M09 A3031 RMK A01 T10361086  RH  069%=      5-min Rain = 0
KBR1 101224Z 32000KT M04/M09 A303 RMK A01 T10381086  RH  069%=      5-min Rain = 0
KBR1 101225Z 30001KT M04/M09 A303 RMK A01 T10381085  RH  070%=      5-min Rain = 0
KBR1 101226Z 29001KT M04/M08 A303 RMK A01 T10371083  RH  071%=      5-min Rain = 0
KBR1 101227Z 29001KT M04/M08 A303 RMK A01 T10371083  RH  070%=      5-min Rain = 0
KBR1 101228Z 27001KT M04/M08 A303 RMK A01 T10371083  RH  070%=      5-min Rain = 0
KBR1 101229Z 26001KT M04/M08 A303 RMK A01 T10371084  RH  070%=      5-min Rain = 0
KBR1 101230Z 25001KT M04/M08 A303 RMK A01 T10371084  RH  070%=      5-min Rain = 0
KBR1 101231Z 25002KT M04/M08 A303 RMK A01 T10371084  RH  070%=      5-min Rain = 0
KBR1 101232Z 24002KT M04/M08 A303 RMK A01 T10371083  RH  071%=      5-min Rain = 0
KBR1 101233Z 24002KT M04/M08 A303 RMK A01 T10361082  RH  071%=      5-min Rain = 0
KBR1 101234Z 24002KT M04/M08 A303 RMK A01 T10351081  RH  071%=      5-min Rain = 0
KBR1 101235Z 25002KT M03/M08 A303 RMK A01 T10341081  RH  070%=      5-min Rain = 0
KBR1 101236Z 26002KT M03/M08 A303 RMK A01 T10341081  RH  070%=      5-min Rain = 0
KBR1 101237Z 26003KT M03/M08 A303 RMK A01 T10331082  RH  069%=      5-min Rain = 0
KBR1 101238Z 26003KT M03/M08 A303 RMK A01 T10341082  RH  069%=      5-min Rain = 0
KBR1 101239Z 26003KT M04/M09 A303 RMK A01 T10371086  RH  069%=      5-min Rain = 0
KBR1 101240Z 25003KT M04/M09 A303 RMK A01 T10421091  RH  069%=      5-min Rain = 0
KBR1 101241Z 25004KT M05/M09 A303 RMK A01 T10451092  RH  070%=      5-min Rain = 0
KBR1 101242Z 24004KT M05/M09 A303 RMK A01 T10471090  RH  072%=      5-min Rain = 0
KBR1 101243Z 24004KT M05/M09 A303 RMK A01 T10491091  RH  072%=      5-min Rain = 0
KBR1 101244Z 24004KT M05/M09 A303 RMK A01 T10511092  RH  073%=      5-min Rain = 0
KBR1 101245Z 24004KT M05/M09 A303 RMK A01 T10541093  RH  074%=      5-min Rain = 0
KBR1 101246Z 24004KT M06/M09 A303 RMK A01 T10561094  RH  074%=      5-min Rain = 0
KBR1 101247Z 24004KT M06/M09 A303 RMK A01 T10571094  RH  075%=      5-min Rain = 0
KBR1 101248Z 24004KT M06/M09 A303 RMK A01 T10571092  RH  076%=      5-min Rain = 0
KBR1 101249Z 23004KT M06/M09 A303 RMK A01 T10581092  RH  077%=      5-min Rain = 0
KBR1 101250Z 23004KT M06/M09 A303 RMK A01 T10591093  RH  077%=      5-min Rain = 0
KBR1 101251Z 23004KT M06/M09 A303 RMK A01 T10601092  RH  078%=      5-min Rain = 0
KBR1 101252Z 23003KT M06/M09 A303 RMK A01 T10601091  RH  078%=      5-min Rain = 0
KBR1 101253Z 23003KT M06/M09 A303 RMK A01 T10611094  RH  078%=      5-min Rain = 0
KBR1 101254Z 23003KT M07/M10 A303 RMK A01 T10651098  RH  077%=      5-min Rain = 0
KBR1 101255Z 23003KT M07/M10 A303 RMK A01 T10671100  RH  078%=      5-min Rain = 0
KBR1 101256Z 22003KT M07/M10 A3031 RMK A01 T10701102  RH  078%=      5-min Rain = 0
KBR1 101257Z 22002KT M07/M10 A3031 RMK A01 T10711102  RH  078%=      5-min Rain = 0
KBR1 101258Z 22002KT M07/M10 A3031 RMK A01 T10721102  RH  079%=      5-min Rain = 0
KBR1 101259Z 23002KT M07/M10 A3031 RMK A01 T10731103  RH  079%=      5-min Rain = 0
KBR1 101300Z 24002KT M07/M10 A3031 RMK A01 T10741103  RH  080%=      5-min Rain = 0
KBR1 101301Z 24002KT M08/M10 A3031 RMK A01 T10751104  RH  080%=      5-min Rain = 0
KBR1 101302Z 24002KT M08/M10 A3031 RMK A01 T10761103  RH  081%=      5-min Rain = 0
KBR1 101303Z 24002KT M08/M10 A3031 RMK A01 T10761103  RH  081%=      5-min Rain = 0
KBR1 101304Z 24003KT M08/M10 A3031 RMK A01 T10771102  RH  082%=      5-min Rain = 0
KBR1 101305Z 23003KT M08/M10 A3031 RMK A01 T10771101  RH  083%=      5-min Rain = 0
KBR1 101306Z 23003KT M08/M10 A3031 RMK A01 T10761100  RH  083%=      5-min Rain = 0
KBR1 101307Z 23003KT M08/M10 A3031 RMK A01 T10761100  RH  083%=      5-min Rain = 0
KBR1 101308Z 23003KT M08/M10 A3031 RMK A01 T10761100  RH  083%=      5-min Rain = 0
KBR1 101309Z 23002KT M08/M10 A3031 RMK A01 T10761101  RH  083%=      5-min Rain = 0
KBR1 101310Z 23003KT M08/M10 A3031 RMK A01 T10771101  RH  083%=      5-min Rain = 0
KBR1 101311Z 23003KT M08/M10 A3031 RMK A01 T10771102  RH  083%=      5-min Rain = 0
KBR1 101312Z 22003KT M08/M10 A3031 RMK A01 T10771101  RH  083%=      5-min Rain = 0
KBR1 101313Z 22004KT M08/M10 A3031 RMK A01 T10771100  RH  084%=      5-min Rain = 0
KBR1 101314Z 22004KT M08/M10 A3031 RMK A01 T10761099  RH  084%=      5-min Rain = 0
KBR1 101315Z 22004KT M08/M10 A3031 RMK A01 T10761098  RH  084%=      5-min Rain = 0
KBR1 101316Z 22004KT M08/M10 A3031 RMK A01 T10751097  RH  084%=      5-min Rain = 0
KBR1 101317Z 22003KT M07/M10 A3031 RMK A01 T10741097  RH  084%=      5-min Rain = 0
KBR1 101318Z 21003KT M08/M10 A3031 RMK A01 T10751099  RH  083%=      5-min Rain = 0
KBR1 101319Z 21003KT M08/M10 A3031 RMK A01 T10751099  RH  083%=      5-min Rain = 0
KBR1 101320Z 21004KT M08/M10 A3031 RMK A01 T10751098  RH  084%=      5-min Rain = 0
KBR1 101321Z 21003KT M08/M10 A3032 RMK A01 T10751097  RH  084%=      5-min Rain = 0
KBR1 101322Z 21003KT M08/M10 A3032 RMK A01 T10751097  RH  084%=      5-min Rain = 0
KBR1 101323Z 21003KT M08/M10 A3032 RMK A01 T10751097  RH  084%=      5-min Rain = 0
KBR1 101324Z 21003KT M07/M09 A3032 RMK A01 T10731094  RH  085%=      5-min Rain = 0
KBR1 101325Z 22002KT M07/M09 A3032 RMK A01 T10721093  RH  085%=      5-min Rain = 0
KBR1 101326Z 21002KT M07/M09 A3032 RMK A01 T10721094  RH  084%=      5-min Rain = 0
KBR1 101327Z 20002KT M07/M10 A3032 RMK A01 T10731096  RH  083%=      5-min Rain = 0
KBR1 101328Z 20003KT M07/M10 A3032 RMK A01 T10731096  RH  084%=      5-min Rain = 0
KBR1 101329Z 20002KT M07/M09 A3032 RMK A01 T10721094  RH  084%=      5-min Rain = 0
KBR1 101330Z 20002KT M07/M09 A3032 RMK A01 T10711093  RH  084%=      5-min Rain = 0
KBR1 101331Z 20003KT M07/M09 A3032 RMK A01 T10701092  RH  084%=      5-min Rain = 0
KBR1 101332Z 20002KT M07/M09 A3032 RMK A01 T10681091  RH  084%=      5-min Rain = 0
KBR1 101333Z 19002KT M07/M09 A3032 RMK A01 T10671091  RH  083%=      5-min Rain = 0
KBR1 101334Z 19002KT M07/M09 A3032 RMK A01 T10661091  RH  083%=      5-min Rain = 0
KBR1 101335Z 19002KT M07/M09 A3032 RMK A01 T10661092  RH  082%=      5-min Rain = 0
KBR1 101336Z 17002KT M07/M09 A3032 RMK A01 T10661092  RH  081%=      5-min Rain = 0
KBR1 101337Z 14002KT M07/M10 A3032 RMK A01 T10661096  RH  080%=      5-min Rain = 0
KBR1 101338Z 11003KT M07/M10 A3032 RMK A01 T10711102  RH  079%=      5-min Rain = 0
KBR1 101339Z 11004KT M07/M10 A3032 RMK A01 T10741103  RH  080%=      5-min Rain = 0
KBR1 101340Z 13003KT M07/M10 A3032 RMK A01 T10741100  RH  082%=      5-min Rain = 0
KBR1 101341Z 15003KT M07/M10 A3032 RMK A01 T10721097  RH  082%=      5-min Rain = 0
KBR1 101342Z 17003KT M07/M09 A3032 RMK A01 T10691094  RH  082%=      5-min Rain = 0
KBR1 101343Z 17003KT M07/M09 A3032 RMK A01 T10661091  RH  082%=      5-min Rain = 0
KBR1 101344Z 17003KT M06/M09 A3032 RMK A01 T10641092  RH  081%=      5-min Rain = 0
KBR1 101345Z 17003KT M07/M09 A3032 RMK A01 T10651094  RH  080%=      5-min Rain = 0
KBR1 101346Z 18003KT M07/M10 A3032 RMK A01 T10671096  RH  080%=      5-min Rain = 0
KBR1 101347Z 18003KT M07/M10 A3032 RMK A01 T10681097  RH  080%=      5-min Rain = 0
KBR1 101348Z 18003KT M07/M10 A3032 RMK A01 T10691097  RH  080%=      5-min Rain = 0
KBR1 101349Z 18004KT M07/M10 A3032 RMK A01 T10691098  RH  080%=      5-min Rain = 0
KBR1 101350Z 19004KT M07/M10 A3032 RMK A01 T10701098  RH  080%=      5-min Rain = 0
KBR1 101351Z 19004KT M07/M10 A3032 RMK A01 T10691098  RH  080%=      5-min Rain = 0
KBR1 101352Z 20004KT M07/M10 A3032 RMK A01 T10681096  RH  080%=      5-min Rain = 0
KBR1 101353Z 20004KT M07/M10 A3032 RMK A01 T10671096  RH  080%=      5-min Rain = 0
KBR1 101354Z 20003KT M07/M10 A3032 RMK A01 T10671097  RH  080%=      5-min Rain = 0
KBR1 101355Z 21003KT M07/M10 A3032 RMK A01 T10671096  RH  080%=      5-min Rain = 0
KBR1 101356Z 21003KT M07/M10 A3032 RMK A01 T10671095  RH  080%=      5-min Rain = 0
KBR1 101357Z 21003KT M07/M10 A3032 RMK A01 T10671096  RH  080%=      5-min Rain = 0
KBR1 101358Z 21002KT M07/M10 A3032 RMK A01 T10671096  RH  080%=      5-min Rain = 0
KBR1 101359Z 22002KT M07/M10 A3032 RMK A01 T10671097  RH  079%=      5-min Rain = 0
KBR1 101400Z 23002KT M07/M10 A3032 RMK A01 T10681098  RH  079%=      5-min Rain = 0
KBR1 101401Z 23001KT M07/M10 A3032 RMK A01 T10691101  RH  078%=      5-min Rain = 0
KBR1 101402Z 23001KT M07/M10 A3032 RMK A01 T10721103  RH  078%=      5-min Rain = 0
KBR1 101403Z 23000KT M07/M10 A3032 RMK A01 T10731102  RH  080%=      5-min Rain = 0
KBR1 101404Z 00000KT M07/M10 A3032 RMK A01 T10731101  RH  080%=      5-min Rain = 0
KBR1 101405Z 23001KT M07/M10 A3032 RMK A01 T10711098  RH  081%=      5-min Rain = 0
KBR1 101406Z 23001KT M07/M10 A3032 RMK A01 T10691096  RH  081%=      5-min Rain = 0
KBR1 101407Z 23001KT M07/M09 A3032 RMK A01 T10661094  RH  080%=      5-min Rain = 0
KBR1 101408Z 23001KT M06/M09 A3032 RMK A01 T10621092  RH  079%=      5-min Rain = 0
KBR1 101409Z 19002KT M06/M09 A3032 RMK A01 T10591091  RH  078%=      5-min Rain = 0
KBR1 101410Z 18003KT M06/M09 A3032 RMK A01 T10561090  RH  077%=      5-min Rain = 0
KBR1 101411Z 17003KT M05/M09 A3032 RMK A01 T10541090  RH  076%=      5-min Rain = 0
KBR1 101412Z 17003KT M05/M09 A3032 RMK A01 T10521091  RH  075%=      5-min Rain = 0
KBR1 101413Z 17003KT M05/M09 A3032 RMK A01 T10511091  RH  074%=      5-min Rain = 0
KBR1 101414Z 17003KT M05/M09 A3032 RMK A01 T10521092  RH  073%=      5-min Rain = 0
KBR1 101415Z 17003KT M05/M09 A3032 RMK A01 T10531093  RH  073%=      5-min Rain = 0
KBR1 101416Z 16002KT M05/M09 A3032 RMK A01 T10531093  RH  074%=      5-min Rain = 0
KBR1 101417Z 16002KT M05/M09 A3032 RMK A01 T10541093  RH  074%=      5-min Rain = 0
KBR1 101418Z 16002KT M05/M09 A3032 RMK A01 T10541092  RH  075%=      5-min Rain = 0
KBR1 101419Z 15002KT M05/M09 A3032 RMK A01 T10541091  RH  075%=      5-min Rain = 0
KBR1 101420Z 15002KT M05/M09 A3033 RMK A01 T10541091  RH  075%=      5-min Rain = 0
KBR1 101421Z 14002KT M06/M09 A3033 RMK A01 T10551092  RH  075%=      5-min Rain = 0
KBR1 101422Z 14003KT M06/M09 A3033 RMK A01 T10551092  RH  075%=      5-min Rain = 0
KBR1 101423Z 11004KT M06/M09 A3032 RMK A01 T10571093  RH  076%=      5-min Rain = 0
KBR1 101424Z 07006KT M06/M09 A3032 RMK A01 T10581092  RH  077%=      5-min Rain = 0
KBR1 101425Z 08006KT M06/M09 A3032 RMK A01 T10581090  RH  078%=      5-min Rain = 0
KBR1 101426Z 08005KT M06/M09 A3032 RMK A01 T10581089  RH  079%=      5-min Rain = 0
KBR1 101427Z 07006KT M06/M09 A3033 RMK A01 T10581089  RH  079%=      5-min Rain = 0
KBR1 101428Z 07005KT M06/M09 A3033 RMK A01 T10581087  RH  080%=      5-min Rain = 0
KBR1 101429Z 07005KT M06/M09 A3033 RMK A01 T10581087  RH  080%=      5-min Rain = 0
KBR1 101430Z 07006KT M06/M09 A3033 RMK A01 T10581086  RH  080%=      5-min Rain = 0
KBR1 101431Z 07006KT M06/M09 A3033 RMK A01 T10571086  RH  080%=      5-min Rain = 0
KBR1 101432Z 07006KT M06/M09 A3033 RMK A01 T10571085  RH  080%=      5-min Rain = 0
KBR1 101433Z 07006KT M06/M09 A3033 RMK A01 T10561085  RH  081%=      5-min Rain = 0
KBR1 101434Z 06006KT M06/M08 A3033 RMK A01 T10551083  RH  081%=      5-min Rain = 0
KBR1 101435Z 06006KT M05/M08 A3033 RMK A01 T10541081  RH  081%=      5-min Rain = 0
KBR1 101436Z 06006KT M05/M08 A3033 RMK A01 T10531081  RH  081%=      5-min Rain = 0
KBR1 101437Z 06006KT M05/M08 A3033 RMK A01 T10521080  RH  081%=      5-min Rain = 0
KBR1 101438Z 06006KT M05/M08 A3033 RMK A01 T10501079  RH  080%=      5-min Rain = 0
KBR1 101439Z 06006KT M05/M08 A3033 RMK A01 T10491078  RH  080%=      5-min Rain = 0
KBR1 101440Z 06006KT M05/M08 A3033 RMK A01 T10471077  RH  080%=      5-min Rain = 0
KBR1 101441Z 06006KT M05/M08 A3033 RMK A01 T10461075  RH  080%=      5-min Rain = 0
KBR1 101442Z 06006KT M04/M07 A3033 RMK A01 T10441074  RH  079%=      5-min Rain = 0
KBR1 101443Z 06005KT M04/M07 A3033 RMK A01 T10421073  RH  078%=      5-min Rain = 0
KBR1 101444Z 06005KT M04/M07 A3033 RMK A01 T10401073  RH  078%=      5-min Rain = 0
KBR1 101445Z 06005KT M04/M07 A3033 RMK A01 T10391073  RH  077%=      5-min Rain = 0
KBR1 101446Z 06005KT M04/M07 A3033 RMK A01 T10381071  RH  078%=      5-min Rain = 0
KBR1 101447Z 06005KT M04/M07 A3033 RMK A01 T10371071  RH  077%=      5-min Rain = 0
KBR1 101448Z 07005KT M04/M07 A3033 RMK A01 T10361069  RH  078%=      5-min Rain = 0
KBR1 101449Z 08006KT M04/M07 A3033 RMK A01 T10351068  RH  078%=      5-min Rain = 0
KBR1 101450Z 08006KT M03/M07 A3033 RMK A01 T10341068  RH  077%=      5-min Rain = 0
KBR1 101451Z 08005KT M03/M07 A3033 RMK A01 T10331068  RH  076%=      5-min Rain = 0
KBR1 101452Z 09005KT M03/M07 A3034 RMK A01 T10321067  RH  076%=      5-min Rain = 0
KBR1 101453Z 09005KT M03/M07 A3034 RMK A01 T10301067  RH  076%=      5-min Rain = 0
KBR1 101454Z 09005KT M03/M07 A3034 RMK A01 T10291066  RH  075%=      5-min Rain = 0
KBR1 101455Z 08005KT M03/M07 A3034 RMK A01 T10281067  RH  074%=      5-min Rain = 0
KBR1 101456Z 07005KT M03/M07 A3034 RMK A01 T10271066  RH  074%=      5-min Rain = 0
KBR1 101457Z 07006KT M03/M07 A3034 RMK A01 T10271068  RH  073%=      5-min Rain = 0
KBR1 101458Z 07005KT M03/M07 A3034 RMK A01 T10281069  RH  073%=      5-min Rain = 0
KBR1 101459Z 06005KT M03/M07 A3034 RMK A01 T10281066  RH  075%=      5-min Rain = 0
KBR1 101500Z 07004KT M03/M07 A3034 RMK A01 T10271065  RH  075%=      5-min Rain = 0
KBR1 101501Z 07004KT M03/M06 A3034 RMK A01 T10261064  RH  075%=      5-min Rain = 0
KBR1 101502Z 07004KT M03/M06 A3034 RMK A01 T10251063  RH  075%=      5-min Rain = 0
KBR1 101503Z 07004KT M02/M06 A3034 RMK A01 T10241062  RH  075%=      5-min Rain = 0
KBR1 101504Z 07003KT M02/M06 A3034 RMK A01 T10221060  RH  076%=      5-min Rain = 0
KBR1 101505Z 08003KT M02/M06 A3034 RMK A01 T10211058  RH  076%=      5-min Rain = 0
KBR1 101506Z 10003KT M02/M06 A3034 RMK A01 T10201057  RH  076%=      5-min Rain = 0
KBR1 101507Z 11003KT M02/M06 A3034 RMK A01 T10181058  RH  074%=      5-min Rain = 0
KBR1 101508Z 14003KT M02/M06 A3034 RMK A01 T10171060  RH  073%=      5-min Rain = 0
KBR1 101509Z 15003KT M02/M06 A3034 RMK A01 T10171060  RH  072%=      5-min Rain = 0
KBR1 101510Z 15003KT M02/M06 A3034 RMK A01 T10161062  RH  071%=      5-min Rain = 0
KBR1 101511Z 15003KT M02/M06 A3034 RMK A01 T10161062  RH  071%=      5-min Rain = 0
KBR1 101512Z 15002KT M02/M06 A3034 RMK A01 T10151059  RH  072%=      5-min Rain = 0
KBR1 101513Z 14003KT M01/M06 A3034 RMK A01 T10131056  RH  072%=      5-min Rain = 0
KBR1 101514Z 14003KT M01/M06 A3034 RMK A01 T10121058  RH  071%=      5-min Rain = 0
KBR1 101515Z 12002KT M01/M06 A3034 RMK A01 T10121059  RH  070%=      5-min Rain = 0
KBR1 101516Z 08003KT M01/M06 A3034 RMK A01 T10111059  RH  070%=      5-min Rain = 0
KBR1 101517Z 07003KT M01/M06 A3034 RMK A01 T10111061  RH  069%=      5-min Rain = 0
KBR1 101518Z 08002KT M01/M06 A3034 RMK A01 T10101059  RH  069%=      5-min Rain = 0
KBR1 101519Z 10002KT M01/M06 A3034 RMK A01 T10101057  RH  070%=      5-min Rain = 0
KBR1 101520Z 11002KT M01/M06 A3034 RMK A01 T10081059  RH  068%=      5-min Rain = 0
KBR1 101521Z 10002KT M01/M06 A3034 RMK A01 T10081064  RH  066%=      5-min Rain = 0
KBR1 101522Z 12002KT M01/M06 A3034 RMK A01 T10071064  RH  065%=      5-min Rain = 0
KBR1 101523Z 14002KT M01/M06 A3034 RMK A01 T10051064  RH  065%=      5-min Rain = 0
KBR1 101524Z 15002KT M00/M06 A3034 RMK A01 T10031064  RH  064%=      5-min Rain = 0
KBR1 101525Z 14002KT M00/M06 A3034 RMK A01 T10021064  RH  063%=      5-min Rain = 0
KBR1 101526Z 10001KT M00/M07 A3035 RMK A01 T10011065  RH  062%=      5-min Rain = 0
KBR1 101527Z 09001KT 00/06 A3035 RMK A01 T00000-63  RH  063%=      5-min Rain = 0
KBR1 101528Z 10001KT 00/M06 A3035 RMK A01 T00011064  RH  062%=      5-min Rain = 0
KBR1 101529Z 10001KT 00/M06 A3035 RMK A01 T00021064  RH  061%=      5-min Rain = 0
KBR1 101530Z 07001KT 00/M06 A3035 RMK A01 T00021062  RH  062%=      5-min Rain = 0
KBR1 101531Z 08002KT 00/M06 A3035 RMK A01 T00031060  RH  063%=      5-min Rain = 0
KBR1 101532Z 09002KT 00/M06 A3035 RMK A01 T00031059  RH  063%=      5-min Rain = 0
KBR1 101533Z 11001KT 00/M06 A3035 RMK A01 T00031059  RH  063%=      5-min Rain = 0
KBR1 101534Z 16001KT 01/M06 A3035 RMK A01 T00051058  RH  063%=      5-min Rain = 0
KBR1 101535Z 14001KT 01/M06 A3035 RMK A01 T00061057  RH  062%=      5-min Rain = 0
KBR1 101536Z 18001KT 01/M06 A3035 RMK A01 T00071058  RH  062%=      5-min Rain = 0
KBR1 101537Z 18002KT 01/M06 A3035 RMK A01 T00071057  RH  062%=      5-min Rain = 0
KBR1 101538Z 13002KT 01/M06 A3035 RMK A01 T00071058  RH  062%=      5-min Rain = 0
KBR1 101539Z 10001KT 01/M06 A3035 RMK A01 T00071059  RH  062%=      5-min Rain = 0
KBR1 101540Z 11001KT 01/M06 A3035 RMK A01 T00071059  RH  061%=      5-min Rain = 0
KBR1 101541Z 13000KT 01/M06 A3035 RMK A01 T00081058  RH  061%=      5-min Rain = 0
KBR1 101542Z 00000KT 01/M06 A3035 RMK A01 T00101057  RH  061%=      5-min Rain = 0
KBR1 101543Z 00000KT 01/M06 A3035 RMK A01 T00111058  RH  060%=      5-min Rain = 0
KBR1 101544Z 07000KT 01/M06 A3035 RMK A01 T00121056  RH  060%=      5-min Rain = 0
KBR1 101545Z 06002KT 01/M06 A3035 RMK A01 T00141056  RH  060%=      5-min Rain = 0
KBR1 101546Z 05001KT 02/M06 A3035 RMK A01 T00151056  RH  059%=      5-min Rain = 0
KBR1 101547Z 18000KT 02/M06 A3035 RMK A01 T00171057  RH  058%=      5-min Rain = 0
KBR1 101548Z 21002KT 02/M06 A3035 RMK A01 T00181056  RH  058%=      5-min Rain = 0
KBR1 101549Z 22004KT 02/M05 A3035 RMK A01 T00181054  RH  059%=      5-min Rain = 0
KBR1 101550Z 22003KT 02/M05 A3035 RMK A01 T00171054  RH  060%=      5-min Rain = 0
KBR1 101551Z 22002KT 01/M06 A3035 RMK A01 T00131058  RH  059%=      5-min Rain = 0
KBR1 101552Z 24002KT 01/M06 A3035 RMK A01 T00111057  RH  060%=      5-min Rain = 0
KBR1 101553Z 24001KT 01/M06 A3035 RMK A01 T00101059  RH  060%=      5-min Rain = 0
KBR1 101554Z 29001KT 01/M06 A3035 RMK A01 T00101058  RH  061%=      5-min Rain = 0
KBR1 101555Z 31001KT 01/M06 A3035 RMK A01 T00111057  RH  060%=      5-min Rain = 0
KBR1 101556Z 00000KT 01/M06 A3035 RMK A01 T00131056  RH  060%=      5-min Rain = 0
KBR1 101557Z 32001KT 02/M05 A3035 RMK A01 T00161053  RH  060%=      5-min Rain = 0
KBR1 101558Z 35001KT 02/M05 A3035 RMK A01 T00171054  RH  059%=      5-min Rain = 0
KBR1 101559Z 01002KT 02/M06 A3035 RMK A01 T00171055  RH  059%=      5-min Rain = 0
KBR1 101600Z 02002KT 02/M06 A3035 RMK A01 T00171055  RH  059%=      5-min Rain = 0
KBR1 101601Z 35002KT 02/M05 A3035 RMK A01 T00171054  RH  059%=      5-min Rain = 0
KBR1 101602Z 01002KT 02/M05 A3035 RMK A01 T00171054  RH  059%=      5-min Rain = 0
KBR1 101603Z 36002KT 02/M05 A3034 RMK A01 T00181053  RH  060%=      5-min Rain = 0
KBR1 101604Z 36001KT 02/M05 A3034 RMK A01 T00181053  RH  059%=      5-min Rain = 0
KBR1 101605Z 35000KT 02/M05 A3034 RMK A01 T00191053  RH  059%=      5-min Rain = 0
KBR1 101606Z 22000KT 02/M05 A3035 RMK A01 T00201053  RH  058%=      5-min Rain = 0
KBR1 101607Z 22001KT 02/M05 A3035 RMK A01 T00211053  RH  058%=      5-min Rain = 0
KBR1 101608Z 22000KT 02/M05 A3035 RMK A01 T00231052  RH  058%=      5-min Rain = 0
KBR1 101609Z 28000KT 03/M05 A3035 RMK A01 T00251049  RH  058%=      5-min Rain = 0
KBR1 101610Z 23001KT 03/M05 A3035 RMK A01 T00281049  RH  057%=      5-min Rain = 0
KBR1 101611Z 26001KT 03/M05 A3035 RMK A01 T00301049  RH  056%=      5-min Rain = 0
KBR1 101612Z 23002KT 03/M05 A3035 RMK A01 T00301051  RH  055%=      5-min Rain = 0
KBR1 101613Z 23002KT 03/M05 A3035 RMK A01 T00301050  RH  056%=      5-min Rain = 0
KBR1 101614Z 23002KT 03/M05 A3035 RMK A01 T00301051  RH  056%=      5-min Rain = 0
KBR1 101615Z 25001KT 03/M05 A3035 RMK A01 T00301051  RH  055%=      5-min Rain = 0
KBR1 101616Z 29002KT 03/M05 A3035 RMK A01 T00321050  RH  055%=      5-min Rain = 0
KBR1 101617Z 27001KT 03/M05 A3035 RMK A01 T00321051  RH  054%=      5-min Rain = 0
KBR1 101618Z 25002KT 03/M05 A3035 RMK A01 T00331048  RH  055%=      5-min Rain = 0
KBR1 101619Z 24002KT 03/M05 A3035 RMK A01 T00331049  RH  055%=      5-min Rain = 0
KBR1 101620Z 26002KT 03/M05 A3035 RMK A01 T00341050  RH  054%=      5-min Rain = 0
KBR1 101621Z 25001KT 03/M05 A3035 RMK A01 T00341051  RH  054%=      5-min Rain = 0
KBR1 101622Z 28002KT 04/M05 A3035 RMK A01 T00361050  RH  054%=      5-min Rain = 0
KBR1 101623Z 29001KT 04/M05 A3035 RMK A01 T00361050  RH  053%=      5-min Rain = 0
KBR1 101624Z 30002KT 04/M05 A3035 RMK A01 T00381050  RH  052%=      5-min Rain = 0
KBR1 101625Z 30002KT 04/M05 A3035 RMK A01 T00391052  RH  051%=      5-min Rain = 0
KBR1 101626Z 31001KT 04/M05 A3035 RMK A01 T00401053  RH  050%=      5-min Rain = 0
KBR1 101627Z 32002KT 04/M06 A3035 RMK A01 T00411056  RH  049%=      5-min Rain = 0
KBR1 101628Z 33001KT 04/M06 A3035 RMK A01 T00421061  RH  047%=      5-min Rain = 0
KBR1 101629Z 32002KT 04/M06 A3035 RMK A01 T00421063  RH  046%=      5-min Rain = 0
KBR1 101630Z 35002KT 04/M06 A3035 RMK A01 T00441064  RH  045%=      5-min Rain = 0
KBR1 101631Z 35002KT 05/M06 A3035 RMK A01 T00451059  RH  047%=      5-min Rain = 0
KBR1 101632Z 35002KT 05/M06 A3035 RMK A01 T00461058  RH  047%=      5-min Rain = 0
KBR1 101633Z 34002KT 05/M06 A3035 RMK A01 T00471057  RH  047%=      5-min Rain = 0
KBR1 101634Z 33003KT 05/M06 A3035 RMK A01 T00491056  RH  047%=      5-min Rain = 0
KBR1 101635Z 33002KT 05/M06 A3035 RMK A01 T00481059  RH  046%=      5-min Rain = 0
KBR1 101636Z 34002KT 05/M06 A3035 RMK A01 T00471058  RH  046%=      5-min Rain = 0
KBR1 101637Z 33004KT 05/M06 A3035 RMK A01 T00481056  RH  047%=      5-min Rain = 0
KBR1 101638Z 33004KT 05/M06 A3035 RMK A01 T00481055  RH  047%=      5-min Rain = 0
KBR1 101639Z 35003KT 05/M06 A3035 RMK A01 T00491056  RH  047%=      5-min Rain = 0
KBR1 101640Z 36002KT 05/M06 A3035 RMK A01 T00491055  RH  047%=      5-min Rain = 0
KBR1 101641Z 33003KT 05/M06 A3034 RMK A01 T00491057  RH  046%=      5-min Rain = 0
KBR1 101642Z 34004KT 05/M06 A3034 RMK A01 T00501056  RH  046%=      5-min Rain = 0
KBR1 101643Z 33004KT 05/M06 A3034 RMK A01 T00501057  RH  046%=      5-min Rain = 0
KBR1 101644Z 31003KT 05/M06 A3034 RMK A01 T00501057  RH  046%=      5-min Rain = 0
KBR1 101645Z 31002KT 05/M06 A3034 RMK A01 T00501057  RH  046%=      5-min Rain = 0
KBR1 101646Z 34003KT 05/M06 A3034 RMK A01 T00511055  RH  046%=      5-min Rain = 0
KBR1 101647Z 35002KT 05/M06 A3034 RMK A01 T00531056  RH  045%=      5-min Rain = 0
KBR1 101648Z 03002KT 06/M06 A3034 RMK A01 T00551056  RH  045%=      5-min Rain = 0
KBR1 101649Z 04002KT 06/M05 A3034 RMK A01 T00571054  RH  045%=      5-min Rain = 0
KBR1 101650Z 32002KT 06/M05 A3034 RMK A01 T00591053  RH  044%=      5-min Rain = 0
KBR1 101651Z 31002KT 06/M06 A3034 RMK A01 T00611055  RH  043%=      5-min Rain = 0
KBR1 101652Z 31003KT 06/M06 A3034 RMK A01 T00611056  RH  043%=      5-min Rain = 0
KBR1 101653Z 31004KT 06/M06 A3034 RMK A01 T00611058  RH  042%=      5-min Rain = 0
KBR1 101654Z 30003KT 06/M06 A3034 RMK A01 T00591059  RH  042%=      5-min Rain = 0
KBR1 101655Z 31003KT 06/M06 A3034 RMK A01 T00591060  RH  042%=      5-min Rain = 0
KBR1 101656Z 30002KT 06/M06 A3034 RMK A01 T00591061  RH  042%=      5-min Rain = 0
KBR1 101657Z 28002KT 06/M06 A3034 RMK A01 T00581061  RH  042%=      5-min Rain = 0
KBR1 101658Z 25001KT 06/M06 A3034 RMK A01 T00591061  RH  042%=      5-min Rain = 0
KBR1 101659Z 21000KT 06/M06 A3034 RMK A01 T00591060  RH  042%=      5-min Rain = 0
KBR1 101700Z 18001KT 06/M06 A3034 RMK A01 T00621059  RH  042%=      5-min Rain = 0
KBR1 101701Z 24001KT 07/M06 A3034 RMK A01 T00651057  RH  041%=      5-min Rain = 0
KBR1 101702Z 31004KT 07/M06 A3034 RMK A01 T00671058  RH  040%=      5-min Rain = 0
KBR1 101703Z 31003KT 07/M06 A3034 RMK A01 T00651062  RH  040%=      5-min Rain = 0
KBR1 101704Z 30003KT 06/M06 A3034 RMK A01 T00641063  RH  040%=      5-min Rain = 0
KBR1 101705Z 31002KT 06/M06 A3034 RMK A01 T00621063  RH  040%=      5-min Rain = 0
KBR1 101706Z 32001KT 06/M06 A3034 RMK A01 T00621063  RH  040%=      5-min Rain = 0
KBR1 101707Z 31000KT 06/M06 A3034 RMK A01 T00621063  RH  040%=      5-min Rain = 0
KBR1 101708Z 26001KT 06/M06 A3034 RMK A01 T00631062  RH  040%=      5-min Rain = 0
KBR1 101709Z 19000KT 07/M06 A3034 RMK A01 T00651062  RH  040%=      5-min Rain = 0
KBR1 101710Z 12001KT 07/M06 A3033 RMK A01 T00651064  RH  039%=      5-min Rain = 0
KBR1 101711Z 04000KT 07/M06 A3033 RMK A01 T00661062  RH  039%=      5-min Rain = 0
KBR1 101712Z 35002KT 07/M06 A3033 RMK A01 T00681061  RH  039%=      5-min Rain = 0
KBR1 101713Z 32001KT 07/M06 A3033 RMK A01 T00691061  RH  039%=      5-min Rain = 0
KBR1 101714Z 27003KT 07/M06 A3033 RMK A01 T00691061  RH  039%=      5-min Rain = 0
KBR1 101715Z 28002KT 07/M06 A3033 RMK A01 T00691060  RH  039%=      5-min Rain = 0
KBR1 101716Z 25000KT 07/M06 A3033 RMK A01 T00701061  RH  039%=      5-min Rain = 0
KBR1 101717Z 26001KT 07/M06 A3033 RMK A01 T00711060  RH  039%=      5-min Rain = 0
KBR1 101718Z 28002KT 07/M06 A3033 RMK A01 T00721061  RH  038%=      5-min Rain = 0
KBR1 101719Z 28003KT 07/M06 A3033 RMK A01 T00721060  RH  038%=      5-min Rain = 0
KBR1 101720Z 30003KT 07/M06 A3033 RMK A01 T00731062  RH  038%=      5-min Rain = 0
KBR1 101721Z 30003KT 07/M06 A3033 RMK A01 T00731062  RH  038%=      5-min Rain = 0
KBR1 101722Z 32002KT 07/M06 A3033 RMK A01 T00721062  RH  038%=      5-min Rain = 0
KBR1 101723Z 29002KT 07/M06 A3033 RMK A01 T00721063  RH  038%=      5-min Rain = 0
KBR1 101724Z 31001KT 07/M06 A3033 RMK A01 T00721062  RH  038%=      5-min Rain = 0
KBR1 101725Z 24000KT 07/M06 A3033 RMK A01 T00721063  RH  038%=      5-min Rain = 0
KBR1 101726Z 33000KT 07/M06 A3033 RMK A01 T00721063  RH  037%=      5-min Rain = 0
KBR1 101727Z 34001KT 07/M06 A3033 RMK A01 T00731063  RH  037%=      5-min Rain = 0
KBR1 101728Z 03000KT 07/M06 A3033 RMK A01 T00731063  RH  037%=      5-min Rain = 0
KBR1 101729Z 30000KT 08/M06 A3033 RMK A01 T00751060  RH  038%=      5-min Rain = 0
KBR1 101730Z 32001KT 08/M06 A3033 RMK A01 T00771060  RH  037%=      5-min Rain = 0
KBR1 101731Z 30004KT 08/M06 A3033 RMK A01 T00771063  RH  036%=      5-min Rain = 0
KBR1 101732Z 29004KT 08/M07 A3033 RMK A01 T00771065  RH  036%=      5-min Rain = 0
KBR1 101733Z 31003KT 08/M07 A3033 RMK A01 T00781067  RH  035%=      5-min Rain = 0
KBR1 101734Z 32004KT 08/M07 A3033 RMK A01 T00781066  RH  035%=      5-min Rain = 0
KBR1 101735Z 32003KT 08/M07 A3033 RMK A01 T00781066  RH  035%=      5-min Rain = 0
KBR1 101736Z 32002KT 08/M07 A3033 RMK A01 T00781065  RH  036%=      5-min Rain = 0
KBR1 101737Z 33003KT 08/M06 A3033 RMK A01 T00781064  RH  036%=      5-min Rain = 0
KBR1 101738Z 30004KT 08/M06 A3033 RMK A01 T00791063  RH  036%=      5-min Rain = 0
KBR1 101739Z 30004KT 08/M06 A3032 RMK A01 T00811064  RH  035%=      5-min Rain = 0
KBR1 101740Z 31005KT 08/M07 A3032 RMK A01 T00811066  RH  035%=      5-min Rain = 0
KBR1 101741Z 30006KT 08/M07 A3032 RMK A01 T00811066  RH  035%=      5-min Rain = 0
KBR1 101742Z 30004KT 08/M07 A3032 RMK A01 T00811067  RH  034%=      5-min Rain = 0
KBR1 101743Z 28003KT 08/M07 A3032 RMK A01 T00811068  RH  034%=      5-min Rain = 0
KBR1 101744Z 25003KT 08/M07 A3032 RMK A01 T00811068  RH  034%=      5-min Rain = 0
KBR1 101745Z 26002KT 08/M07 A3032 RMK A01 T00811067  RH  034%=      5-min Rain = 0
KBR1 101746Z 29003KT 08/M07 A3032 RMK A01 T00831066  RH  034%=      5-min Rain = 0
KBR1 101747Z 27004KT 09/M07 A3032 RMK A01 T00851065  RH  034%=      5-min Rain = 0
KBR1 101748Z 26004KT 09/M07 A3032 RMK A01 T00851065  RH  034%=      5-min Rain = 0
KBR1 101749Z 24004KT 09/M07 A3032 RMK A01 T00861067  RH  033%=      5-min Rain = 0
KBR1 101750Z 24005KT 09/M07 A3032 RMK A01 T00861066  RH  033%=      5-min Rain = 0
KBR1 101751Z 25003KT 09/M07 A3032 RMK A01 T00851069  RH  033%=      5-min Rain = 0
KBR1 101752Z 24003KT 08/M07 A3032 RMK A01 T00841067  RH  034%=      5-min Rain = 0
KBR1 101753Z 22005KT 09/M06 A3032 RMK A01 T00851064  RH  034%=      5-min Rain = 0
KBR1 101754Z 22006KT 09/M06 A3032 RMK A01 T00891059  RH  035%=      5-min Rain = 0
KBR1 101755Z 24005KT 09/M06 A3032 RMK A01 T00911061  RH  034%=      5-min Rain = 0
KBR1 101756Z 21006KT 09/M06 A3032 RMK A01 T00891062  RH  034%=      5-min Rain = 0
KBR1 101757Z 20004KT 09/M06 A3032 RMK A01 T00881064  RH  034%=      5-min Rain = 0
KBR1 101758Z 20004KT 09/M06 A3031 RMK A01 T00871064  RH  034%=      5-min Rain = 0
KBR1 101759Z 22002KT 09/M06 A3031 RMK A01 T00871064  RH  034%=      5-min Rain = 0
KBR1 101800Z 23003KT 09/M06 A3031 RMK A01 T00871063  RH  034%=      5-min Rain = 0
KBR1 101801Z 24004KT 09/M06 A3031 RMK A01 T00901061  RH  034%=      5-min Rain = 0
KBR1 101802Z 24002KT 09/M06 A3031 RMK A01 T00891063  RH  033%=      5-min Rain = 0
KBR1 101803Z 25004KT 09/M06 A3031 RMK A01 T00901061  RH  034%=      5-min Rain = 0
KBR1 101804Z 19004KT 09/M06 A3031 RMK A01 T00941059  RH  034%=      5-min Rain = 0
KBR1 101805Z 21004KT 10/M06 A3031 RMK A01 T00971059  RH  033%=      5-min Rain = 0
KBR1 101806Z 17003KT 10/M06 A3031 RMK A01 T00951063  RH  032%=      5-min Rain = 0
KBR1 101807Z 18004KT 10/M06 A3031 RMK A01 T00951062  RH  032%=      5-min Rain = 0
KBR1 101808Z 17002KT 10/M06 A3031 RMK A01 T00971062  RH  032%=      5-min Rain = 0
KBR1 101809Z 18003KT 10/M06 A303 RMK A01 T00971063  RH  032%=      5-min Rain = 0
KBR1 101810Z 21004KT 10/M07 A303 RMK A01 T00971065  RH  031%=      5-min Rain = 0
KBR1 101811Z 21002KT 10/M07 A303 RMK A01 T00961065  RH  031%=      5-min Rain = 0
KBR1 101812Z 21003KT 10/M06 A303 RMK A01 T00961062  RH  032%=      5-min Rain = 0
KBR1 101813Z 24002KT 10/M06 A303 RMK A01 T00971063  RH  032%=      5-min Rain = 0
KBR1 101814Z 23000KT 10/M07 A303 RMK A01 T00971065  RH  031%=      5-min Rain = 0
KBR1 101815Z 18001KT 10/M06 A303 RMK A01 T00981064  RH  031%=      5-min Rain = 0
KBR1 101816Z 19002KT 10/M06 A303 RMK A01 T01001062  RH  031%=      5-min Rain = 0
KBR1 101817Z 19003KT 10/M06 A303 RMK A01 T01021060  RH  031%=      5-min Rain = 0
KBR1 101818Z 20003KT 10/M06 A303 RMK A01 T01041059  RH  031%=      5-min Rain = 0
KBR1 101819Z 26004KT 10/M06 A303 RMK A01 T01041060  RH  031%=      5-min Rain = 0
KBR1 101820Z 22002KT 10/M06 A303 RMK A01 T01021064  RH  030%=      5-min Rain = 0
KBR1 101821Z 13002KT 10/M07 A303 RMK A01 T01001066  RH  030%=      5-min Rain = 0
KBR1 101822Z 10002KT 10/M07 A3029 RMK A01 T01001069  RH  030%=      5-min Rain = 0
KBR1 101823Z 08001KT 10/M07 A3029 RMK A01 T01001070  RH  030%=      5-min Rain = 0
KBR1 101824Z 11001KT 10/M07 A3029 RMK A01 T01001068  RH  030%=      5-min Rain = 0
KBR1 101825Z 22002KT 10/M07 A3029 RMK A01 T01021067  RH  030%=      5-min Rain = 0
KBR1 101826Z 22003KT 10/M07 A3029 RMK A01 T01041065  RH  030%=      5-min Rain = 0
KBR1 101827Z 21003KT 10/M07 A3029 RMK A01 T01041065  RH  030%=      5-min Rain = 0
KBR1 101828Z 20004KT 10/M06 A3029 RMK A01 T01041063  RH  030%=      5-min Rain = 0
KBR1 101829Z 20004KT 10/M06 A3029 RMK A01 T01041063  RH  030%=      5-min Rain = 0
KBR1 101830Z 19003KT 10/M07 A3029 RMK A01 T01031065  RH  030%=      5-min Rain = 0
KBR1 101831Z 18002KT 10/M07 A3029 RMK A01 T01001068  RH  030%=      5-min Rain = 0
KBR1 101832Z 15002KT 10/M07 A3029 RMK A01 T01001065  RH  031%=      5-min Rain = 0
KBR1 101833Z 16004KT 10/M07 A3029 RMK A01 T01011065  RH  030%=      5-min Rain = 0
KBR1 101834Z 16001KT 10/M07 A3029 RMK A01 T01011066  RH  030%=      5-min Rain = 0
KBR1 101835Z 15001KT 10/M07 A3029 RMK A01 T01021065  RH  030%=      5-min Rain = 0
KBR1 101836Z 17001KT 10/M07 A3029 RMK A01 T01031067  RH  030%=      5-min Rain = 0
KBR1 101837Z 10001KT 10/M07 A3028 RMK A01 T01031067  RH  030%=      5-min Rain = 0
KBR1 101838Z 09002KT 11/M07 A3028 RMK A01 T01051066  RH  029%=      5-min Rain = 0
KBR1 101839Z 07003KT 11/M07 A3028 RMK A01 T01051068  RH  029%=      5-min Rain = 0
KBR1 101840Z 07001KT 10/M07 A3028 RMK A01 T01041069  RH  029%=      5-min Rain = 0
KBR1 101841Z 05000KT 11/M07 A3028 RMK A01 T01051067  RH  029%=      5-min Rain = 0
KBR1 101842Z 29000KT 11/M07 A3028 RMK A01 T01071067  RH  029%=      5-min Rain = 0
KBR1 101843Z 23000KT 11/M07 A3028 RMK A01 T01101069  RH  028%=      5-min Rain = 0
KBR1 101844Z 23002KT 11/M07 A3028 RMK A01 T01111066  RH  028%=      5-min Rain = 0
KBR1 101845Z 24003KT 11/M07 A3028 RMK A01 T01101067  RH  028%=      5-min Rain = 0
KBR1 101846Z 23002KT 11/M07 A3028 RMK A01 T01071069  RH  028%=      5-min Rain = 0
KBR1 101847Z 28003KT 11/M07 A3028 RMK A01 T01051069  RH  029%=      5-min Rain = 0
KBR1 101848Z 28003KT 11/M07 A3028 RMK A01 T01061067  RH  029%=      5-min Rain = 0
KBR1 101849Z 30001KT 11/M07 A3028 RMK A01 T01081065  RH  029%=      5-min Rain = 0
KBR1 101850Z 24000KT 11/M06 A3028 RMK A01 T01111063  RH  029%=      5-min Rain = 0
KBR1 101851Z 17002KT 11/M07 A3028 RMK A01 T01131065  RH  028%=      5-min Rain = 0
KBR1 101852Z 16003KT 11/M07 A3027 RMK A01 T01131067  RH  028%=      5-min Rain = 0
KBR1 101853Z 18002KT 11/M07 A3027 RMK A01 T01131068  RH  028%=      5-min Rain = 0
KBR1 101854Z 24000KT 11/M07 A3027 RMK A01 T01121068  RH  028%=      5-min Rain = 0
KBR1 101855Z 28000KT 11/M07 A3027 RMK A01 T01131068  RH  028%=      5-min Rain = 0
KBR1 101856Z 30000KT 11/M07 A3027 RMK A01 T01141067  RH  028%=      5-min Rain = 0
KBR1 101857Z 08001KT 12/M07 A3027 RMK A01 T01151066  RH  028%=      5-min Rain = 0
KBR1 101858Z 09002KT 12/M07 A3027 RMK A01 T01161067  RH  027%=      5-min Rain = 0
KBR1 101859Z 14002KT 12/M07 A3027 RMK A01 T01161067  RH  027%=      5-min Rain = 0
KBR1 101900Z 16003KT 12/M07 A3027 RMK A01 T01161067  RH  027%=      5-min Rain = 0
KBR1 101901Z 18003KT 11/M07 A3027 RMK A01 T01141068  RH  027%=      5-min Rain = 0
KBR1 101902Z 18004KT 11/M07 A3027 RMK A01 T01141067  RH  027%=      5-min Rain = 0
KBR1 101903Z 20003KT 12/M07 A3027 RMK A01 T01151067  RH  027%=      5-min Rain = 0
KBR1 101904Z 23004KT 12/M07 A3027 RMK A01 T01161067  RH  027%=      5-min Rain = 0
KBR1 101905Z 18006KT 12/M07 A3027 RMK A01 T01161066  RH  027%=      5-min Rain = 0
KBR1 101906Z 18004KT 12/M06 A3027 RMK A01 T01181062  RH  028%=      5-min Rain = 0
KBR1 101907Z 20007KT 12/M06 A3027 RMK A01 T01211063  RH  027%=      5-min Rain = 0
KBR1 101908Z 22007KT 12/M07 A3027 RMK A01 T01211065  RH  027%=      5-min Rain = 0
KBR1 101909Z 24006KT 12/M07 A3027 RMK A01 T01211067  RH  026%=      5-min Rain = 0
KBR1 101910Z 25004KT 12/M07 A3027 RMK A01 T01181071  RH  026%=      5-min Rain = 0
KBR1 101911Z 24004KT 12/M07 A3027 RMK A01 T01151070  RH  027%=      5-min Rain = 0
KBR1 101912Z 23005KT 12/M07 A3027 RMK A01 T01151070  RH  027%=      5-min Rain = 0
KBR1 101913Z 24005KT 12/M07 A3027 RMK A01 T01171070  RH  026%=      5-min Rain = 0
KBR1 101914Z 23004KT 12/M07 A3027 RMK A01 T01171069  RH  026%=      5-min Rain = 0
KBR1 101915Z 23004KT 12/M07 A3027 RMK A01 T01191071  RH  026%=      5-min Rain = 0
KBR1 101916Z 22003KT 12/M07 A3026 RMK A01 T01181072  RH  026%=      5-min Rain = 0
KBR1 101917Z 18002KT 12/M07 A3026 RMK A01 T01181070  RH  026%=      5-min Rain = 0
KBR1 101918Z 19002KT 12/M07 A3026 RMK A01 T01201070  RH  026%=      5-min Rain = 0
KBR1 101919Z 22003KT 12/M07 A3026 RMK A01 T01211069  RH  026%=      5-min Rain = 0
KBR1 101920Z 18005KT 12/M07 A3026 RMK A01 T01221069  RH  026%=      5-min Rain = 0
KBR1 101921Z 21005KT 12/M07 A3026 RMK A01 T01231070  RH  025%=      5-min Rain = 0
KBR1 101922Z 23006KT 12/M07 A3026 RMK A01 T01231069  RH  025%=      5-min Rain = 0
KBR1 101923Z 22005KT 12/M07 A3026 RMK A01 T01231071  RH  025%=      5-min Rain = 0
KBR1 101924Z 23005KT 12/M07 A3026 RMK A01 T01231070  RH  025%=      5-min Rain = 0
KBR1 101925Z 23002KT 12/M07 A3026 RMK A01 T01221072  RH  025%=      5-min Rain = 0
KBR1 101926Z 20003KT 12/M07 A3026 RMK A01 T01221070  RH  025%=      5-min Rain = 0
KBR1 101927Z 19005KT 12/M07 A3026 RMK A01 T01231070  RH  025%=      5-min Rain = 0
KBR1 101928Z 22006KT 12/M07 A3026 RMK A01 T01231071  RH  025%=      5-min Rain = 0
KBR1 101929Z 23004KT 12/M07 A3026 RMK A01 T01221071  RH  025%=      5-min Rain = 0
KBR1 101930Z 24002KT 12/M07 A3026 RMK A01 T01211073  RH  025%=      5-min Rain = 0
KBR1 101931Z 22003KT 12/M07 A3026 RMK A01 T01201073  RH  025%=      5-min Rain = 0
KBR1 101932Z 21005KT 12/M08 A3026 RMK A01 T01211075  RH  025%=      5-min Rain = 0
KBR1 101933Z 23004KT 12/M08 A3026 RMK A01 T01221076  RH  024%=      5-min Rain = 0
KBR1 101934Z 20005KT 12/M08 A3026 RMK A01 T01231076  RH  024%=      5-min Rain = 0
KBR1 101935Z 19006KT 13/M08 A3025 RMK A01 T01251077  RH  024%=      5-min Rain = 0
KBR1 101936Z 19005KT 12/M08 A3025 RMK A01 T01231081  RH  023%=      5-min Rain = 0
KBR1 101937Z 20007KT 12/M08 A3025 RMK A01 T01241076  RH  024%=      5-min Rain = 0
KBR1 101938Z 23007KT 13/M08 A3025 RMK A01 T01291080  RH  023%=      5-min Rain = 0
KBR1 101939Z 25007KT 13/M08 A3025 RMK A01 T01311081  RH  022%=      5-min Rain = 0
KBR1 101940Z 23007KT 13/M08 A3025 RMK A01 T01321082  RH  022%=      5-min Rain = 0
KBR1 101941Z 23008KT 13/M09 A3025 RMK A01 T01311086  RH  021%=      5-min Rain = 0
KBR1 101942Z 24007KT 13/M09 A3025 RMK A01 T01291088  RH  021%=      5-min Rain = 0
KBR1 101943Z 21004KT 13/M09 A3025 RMK A01 T01261088  RH  022%=      5-min Rain = 0
KBR1 101944Z 19006KT 13/M09 A3025 RMK A01 T01261088  RH  022%=      5-min Rain = 0
KBR1 101945Z 21006KT 13/M09 A3025 RMK A01 T01261089  RH  021%=      5-min Rain = 0
KBR1 101946Z 24005KT 13/M09 A3025 RMK A01 T01271087  RH  022%=      5-min Rain = 0
KBR1 101947Z 22003KT 13/M09 A3025 RMK A01 T01281086  RH  022%=      5-min Rain = 0
KBR1 101948Z 20003KT 13/M09 A3025 RMK A01 T01281088  RH  021%=      5-min Rain = 0
KBR1 101949Z 20007KT 13/M08 A3025 RMK A01 T01281084  RH  022%=      5-min Rain = 0
KBR1 101950Z 23009KT 13/M09 A3025 RMK A01 T01271085  RH  022%=      5-min Rain = 0
KBR1 101951Z 25007KT 13/M09 A3025 RMK A01 T01271086  RH  022%=      5-min Rain = 0
KBR1 101952Z 21006KT 13/M09 A3025 RMK A01 T01261087  RH  022%=      5-min Rain = 0
KBR1 101953Z 20006KT 13/M09 A3025 RMK A01 T01271086  RH  022%=      5-min Rain = 0
KBR1 101954Z 21006KT 13/M09 A3025 RMK A01 T01281090  RH  021%=      5-min Rain = 0
KBR1 101955Z 20005KT 13/M09 A3025 RMK A01 T01281093  RH  021%=      5-min Rain = 0
KBR1 101956Z 22004KT 13/M09 A3025 RMK A01 T01271094  RH  021%=      5-min Rain = 0
KBR1 101957Z 23007KT 13/M09 A3025 RMK A01 T01271091  RH  021%=      5-min Rain = 0
KBR1 101958Z 24006KT 13/M09 A3025 RMK A01 T01281090  RH  021%=      5-min Rain = 0
KBR1 101959Z 23005KT 13/M09 A3024 RMK A01 T01271091  RH  021%=      5-min Rain = 0
KBR1 102000Z 25002KT 13/M09 A3024 RMK A01 T01261093  RH  021%=      5-min Rain = 0
KBR1 102001Z 22007KT 13/M09 A3024 RMK A01 T01261091  RH  021%=      5-min Rain = 0
KBR1 102002Z 23006KT 13/M09 A3024 RMK A01 T01271090  RH  021%=      5-min Rain = 0
KBR1 102003Z 23006KT 13/M09 A3024 RMK A01 T01281091  RH  021%=      5-min Rain = 0
KBR1 102004Z 20007KT 13/M09 A3024 RMK A01 T01291090  RH  021%=      5-min Rain = 0
KBR1 102005Z 20007KT 13/M09 A3024 RMK A01 T01301091  RH  021%=      5-min Rain = 0
KBR1 102006Z 22007KT 13/M09 A3024 RMK A01 T01311090  RH  021%=      5-min Rain = 0
KBR1 102007Z 22005KT 13/M09 A3024 RMK A01 T01311089  RH  021%=      5-min Rain = 0
KBR1 102008Z 23004KT 13/M09 A3024 RMK A01 T01281091  RH  021%=      5-min Rain = 0
KBR1 102009Z 26001KT 13/M09 A3024 RMK A01 T01261092  RH  021%=      5-min Rain = 0
KBR1 102010Z 22003KT 13/M09 A3024 RMK A01 T01271090  RH  021%=      5-min Rain = 0
KBR1 102011Z 22006KT 13/M09 A3024 RMK A01 T01311085  RH  021%=      5-min Rain = 0
KBR1 102012Z 22006KT 13/M09 A3024 RMK A01 T01331085  RH  021%=      5-min Rain = 0
KBR1 102013Z 21009KT 14/M08 A3024 RMK A01 T01361083  RH  021%=      5-min Rain = 0
KBR1 102014Z 23007KT 14/M09 A3024 RMK A01 T01381087  RH  020%=      5-min Rain = 0
KBR1 102015Z 23007KT 14/M09 A3024 RMK A01 T01371093  RH  019%=      5-min Rain = 0
KBR1 102016Z 22007KT 13/M09 A3024 RMK A01 T01341094  RH  020%=      5-min Rain = 0
KBR1 102017Z 21008KT 13/M09 A3024 RMK A01 T01331090  RH  020%=      5-min Rain = 0
KBR1 102018Z 21007KT 13/M09 A3024 RMK A01 T01321088  RH  021%=      5-min Rain = 0
KBR1 102019Z 21005KT 13/M09 A3024 RMK A01 T01321088  RH  021%=      5-min Rain = 0
KBR1 102020Z 20005KT 13/M09 A3024 RMK A01 T01311089  RH  021%=      5-min Rain = 0
KBR1 102021Z 21008KT 13/M09 A3024 RMK A01 T01321087  RH  021%=      5-min Rain = 0
KBR1 102022Z 22008KT 14/M09 A3023 RMK A01 T01351090  RH  020%=      5-min Rain = 0
KBR1 102023Z 24007KT 14/M09 A3024 RMK A01 T01361093  RH  020%=      5-min Rain = 0
KBR1 102024Z 23005KT 14/M10 A3024 RMK A01 T01351095  RH  019%=      5-min Rain = 0
KBR1 102025Z 24007KT 13/M10 A3023 RMK A01 T01341097  RH  019%=      5-min Rain = 0
KBR1 102026Z 22009KT 13/M10 A3023 RMK A01 T01321098  RH  019%=      5-min Rain = 0
KBR1 102027Z 23007KT 13/M10 A3023 RMK A01 T01321098  RH  019%=      5-min Rain = 0
KBR1 102028Z 22006KT 13/M10 A3023 RMK A01 T01311097  RH  019%=      5-min Rain = 0
KBR1 102029Z 21007KT 13/M10 A3023 RMK A01 T01321096  RH  020%=      5-min Rain = 0
KBR1 102030Z 20007KT 13/M10 A3023 RMK A01 T01321097  RH  019%=      5-min Rain = 0
KBR1 102031Z 21006KT 13/M10 A3023 RMK A01 T01311096  RH  020%=      5-min Rain = 0
KBR1 102032Z 22006KT 13/M10 A3023 RMK A01 T01321098  RH  019%=      5-min Rain = 0
KBR1 102033Z 22010KT 13/M10 A3023 RMK A01 T01341097  RH  019%=      5-min Rain = 0
KBR1 102034Z 22011KT 14/M11 A3023 RMK A01 T01361107  RH  018%=      5-min Rain = 0
KBR1 102035Z 23008KT 14/M11 A3023 RMK A01 T01351109  RH  017%=      5-min Rain = 0
KBR1 102036Z 23007KT 14/M11 A3023 RMK A01 T01351106  RH  018%=      5-min Rain = 0
KBR1 102037Z 23007KT 14/M10 A3023 RMK A01 T01351104  RH  018%=      5-min Rain = 0
KBR1 102038Z 22007KT 13/M10 A3023 RMK A01 T01341098  RH  019%=      5-min Rain = 0
KBR1 102039Z 22007KT 14/M09 A3023 RMK A01 T01361091  RH  020%=      5-min Rain = 0
KBR1 102040Z 23006KT 14/M09 A3023 RMK A01 T01351091  RH  020%=      5-min Rain = 0
KBR1 102041Z 22005KT 13/M09 A3023 RMK A01 T01331091  RH  020%=      5-min Rain = 0
KBR1 102042Z 23010KT 13/M09 A3023 RMK A01 T01331094  RH  020%=      5-min Rain = 0
KBR1 102043Z 23009KT 13/M10 A3023 RMK A01 T01341101  RH  018%=      5-min Rain = 0
KBR1 102044Z 24008KT 14/M10 A3023 RMK A01 T01351104  RH  018%=      5-min Rain = 0
KBR1 102045Z 23007KT 13/M10 A3023 RMK A01 T01341102  RH  018%=      5-min Rain = 0
KBR1 102046Z 20009KT 13/M10 A3023 RMK A01 T01331095  RH  019%=      5-min Rain = 0
KBR1 102047Z 20008KT 13/M09 A3023 RMK A01 T01341093  RH  020%=      5-min Rain = 0
KBR1 102048Z 20009KT 13/M09 A3023 RMK A01 T01341092  RH  020%=      5-min Rain = 0
KBR1 102049Z 20009KT 14/M09 A3023 RMK A01 T01351092  RH  020%=      5-min Rain = 0
KBR1 102050Z 20008KT 14/M09 A3023 RMK A01 T01351092  RH  020%=      5-min Rain = 0
KBR1 102051Z 21006KT 13/M09 A3023 RMK A01 T01341094  RH  020%=      5-min Rain = 0
KBR1 102052Z 22010KT 13/M09 A3023 RMK A01 T01341093  RH  020%=      5-min Rain = 0
KBR1 102053Z 22008KT 14/M10 A3023 RMK A01 T01351097  RH  019%=      5-min Rain = 0
KBR1 102054Z 23007KT 14/M09 A3023 RMK A01 T01371093  RH  019%=      5-min Rain = 0
KBR1 102055Z 23007KT 14/M10 A3022 RMK A01 T01381104  RH  018%=      5-min Rain = 0
KBR1 102056Z 21006KT 14/M09 A3022 RMK A01 T01371092  RH  019%=      5-min Rain = 0
KBR1 102057Z 23009KT 14/M09 A3022 RMK A01 T01381091  RH  020%=      5-min Rain = 0
KBR1 102058Z 21009KT 14/M09 A3022 RMK A01 T01391088  RH  020%=      5-min Rain = 0
KBR1 102059Z 20008KT 14/M09 A3022 RMK A01 T01381089  RH  020%=      5-min Rain = 0
KBR1 102100Z 20006KT 14/M09 A3022 RMK A01 T01351092  RH  020%=      5-min Rain = 0
KBR1 102101Z 21008KT 14/M09 A3022 RMK A01 T01361088  RH  020%=      5-min Rain = 0
KBR1 102102Z 21009KT 14/M09 A3022 RMK A01 T01381089  RH  020%=      5-min Rain = 0
KBR1 102103Z 22009KT 14/M09 A3022 RMK A01 T01391092  RH  019%=      5-min Rain = 0
KBR1 102104Z 23007KT 14/M09 A3022 RMK A01 T01381093  RH  019%=      5-min Rain = 0
KBR1 102105Z 23005KT 14/M09 A3022 RMK A01 T01371093  RH  019%=      5-min Rain = 0
KBR1 102106Z 20005KT 14/M09 A3022 RMK A01 T01361091  RH  020%=      5-min Rain = 0
KBR1 102107Z 23006KT 14/M09 A3022 RMK A01 T01381089  RH  020%=      5-min Rain = 0
KBR1 102108Z 24009KT 14/M09 A3022 RMK A01 T01401091  RH  019%=      5-min Rain = 0
KBR1 102109Z 24009KT 14/M09 A3022 RMK A01 T01391091  RH  019%=      5-min Rain = 0
KBR1 102110Z 22009KT 14/M09 A3022 RMK A01 T01371092  RH  020%=      5-min Rain = 0
KBR1 102111Z 22007KT 14/M09 A3022 RMK A01 T01371087  RH  020%=      5-min Rain = 0
KBR1 102112Z 23007KT 14/M09 A3022 RMK A01 T01391085  RH  020%=      5-min Rain = 0
KBR1 102113Z 22009KT 14/M09 A3022 RMK A01 T01401089  RH  020%=      5-min Rain = 0
KBR1 102114Z 21008KT 14/M09 A3022 RMK A01 T01401091  RH  019%=      5-min Rain = 0
KBR1 102115Z 22011KT 14/M09 A3022 RMK A01 T01391093  RH  019%=      5-min Rain = 0
KBR1 102116Z 21012KT 14/M10 A3022 RMK A01 T01391095  RH  019%=      5-min Rain = 0
KBR1 102117Z 22009KT 14/M09 A3022 RMK A01 T01381094  RH  019%=      5-min Rain = 0
KBR1 102118Z 23007KT 14/M09 A3022 RMK A01 T01361093  RH  019%=      5-min Rain = 0
KBR1 102119Z 23009KT 14/M09 A3022 RMK A01 T01361091  RH  020%=      5-min Rain = 0
KBR1 102120Z 22009KT 14/M09 A3022 RMK A01 T01361091  RH  020%=      5-min Rain = 0
KBR1 102121Z 22011KT 14/M10 A3022 RMK A01 T01371102  RH  018%=      5-min Rain = 0
KBR1 102122Z 22010KT 14/M10 A3022 RMK A01 T01371103  RH  018%=      5-min Rain = 0
KBR1 102123Z 23010KT 14/M10 A3022 RMK A01 T01371100  RH  018%=      5-min Rain = 0
KBR1 102124Z 23009KT 14/M10 A3022 RMK A01 T01361098  RH  019%=      5-min Rain = 0
KBR1 102125Z 21008KT 14/M10 A3022 RMK A01 T01351096  RH  019%=      5-min Rain = 0
KBR1 102126Z 21009KT 14/M10 A3022 RMK A01 T01351097  RH  019%=      5-min Rain = 0
KBR1 102127Z 20009KT 14/M10 A3022 RMK A01 T01351098  RH  019%=      5-min Rain = 0
KBR1 102128Z 20009KT 14/M10 A3022 RMK A01 T01351098  RH  019%=      5-min Rain = 0
KBR1 102129Z 20010KT 14/M10 A3022 RMK A01 T01351098  RH  019%=      5-min Rain = 0
KBR1 102130Z 21009KT 14/M10 A3022 RMK A01 T01351099  RH  019%=      5-min Rain = 0
KBR1 102131Z 21009KT 14/M10 A3022 RMK A01 T01351103  RH  018%=      5-min Rain = 0
KBR1 102132Z 22009KT 14/M10 A3022 RMK A01 T01351104  RH  018%=      5-min Rain = 0
KBR1 102133Z 21010KT 14/M10 A3022 RMK A01 T01351101  RH  018%=      5-min Rain = 0
KBR1 102134Z 21007KT 14/M10 A3022 RMK A01 T01351099  RH  019%=      5-min Rain = 0
KBR1 102135Z 20010KT 14/M10 A3022 RMK A01 T01371099  RH  018%=      5-min Rain = 0
KBR1 102136Z 21009KT 14/M10 A3022 RMK A01 T01371103  RH  018%=      5-min Rain = 0
KBR1 102137Z 22010KT 14/M11 A3022 RMK A01 T01361105  RH  018%=      5-min Rain = 0
KBR1 102138Z 23007KT 14/M11 A3022 RMK A01 T01361109  RH  017%=      5-min Rain = 0
KBR1 102139Z 24007KT 14/M11 A3022 RMK A01 T01361109  RH  017%=      5-min Rain = 0
KBR1 102140Z 23007KT 14/M11 A3022 RMK A01 T01351105  RH  018%=      5-min Rain = 0
KBR1 102141Z 22008KT 13/M10 A3022 RMK A01 T01341104  RH  018%=      5-min Rain = 0
KBR1 102142Z 23009KT 13/M10 A3022 RMK A01 T01341104  RH  018%=      5-min Rain = 0
KBR1 102143Z 24008KT 14/M11 A3022 RMK A01 T01351109  RH  017%=      5-min Rain = 0
KBR1 102144Z 21011KT 13/M11 A3022 RMK A01 T01341111  RH  017%=      5-min Rain = 0
KBR1 102145Z 21009KT 13/M11 A3022 RMK A01 T01341108  RH  017%=      5-min Rain = 0
KBR1 102146Z 21009KT 13/M11 A3022 RMK A01 T01341105  RH  018%=      5-min Rain = 0
KBR1 102147Z 22009KT 13/M10 A3022 RMK A01 T01331102  RH  018%=      5-min Rain = 0
KBR1 102148Z 22008KT 13/M10 A3022 RMK A01 T01331101  RH  019%=      5-min Rain = 0
KBR1 102149Z 21008KT 13/M10 A3022 RMK A01 T01331101  RH  019%=      5-min Rain = 0
KBR1 102150Z 22010KT 13/M10 A3021 RMK A01 T01331103  RH  018%=      5-min Rain = 0
KBR1 102151Z 22010KT 13/M11 A3022 RMK A01 T01341106  RH  018%=      5-min Rain = 0
KBR1 102152Z 23008KT 13/M11 A3022 RMK A01 T01341108  RH  018%=      5-min Rain = 0
KBR1 102153Z 22010KT 13/M11 A3022 RMK A01 T01341109  RH  017%=      5-min Rain = 0
KBR1 102154Z 22010KT 13/M10 A3022 RMK A01 T01331104  RH  018%=      5-min Rain = 0
KBR1 102155Z 21008KT 13/M10 A3022 RMK A01 T01321102  RH  019%=      5-min Rain = 0
KBR1 102156Z 21008KT 13/M10 A3022 RMK A01 T01311103  RH  019%=      5-min Rain = 0
KBR1 102157Z 20009KT 13/M10 A3022 RMK A01 T01321101  RH  019%=      5-min Rain = 0
KBR1 102158Z 21011KT 13/M10 A3022 RMK A01 T01341099  RH  019%=      5-min Rain = 0
KBR1 102159Z 21009KT 13/M10 A3022 RMK A01 T01331098  RH  019%=      5-min Rain = 0
KBR1 102200Z 20010KT 13/M10 A3022 RMK A01 T01331099  RH  019%=      5-min Rain = 0
KBR1 102201Z 21009KT 13/M10 A3022 RMK A01 T01321101  RH  019%=      5-min Rain = 0
KBR1 102202Z 22009KT 13/M10 A3022 RMK A01 T01321100  RH  019%=      5-min Rain = 0
KBR1 102203Z 20009KT 13/M10 A3022 RMK A01 T01311099  RH  019%=      5-min Rain = 0
KBR1 102204Z 21009KT 13/M10 A3022 RMK A01 T01301100  RH  019%=      5-min Rain = 0
KBR1 102205Z 21008KT 13/M10 A3022 RMK A01 T01301099  RH  019%=      5-min Rain = 0
KBR1 102206Z 22009KT 13/M10 A3022 RMK A01 T01301099  RH  019%=      5-min Rain = 0
KBR1 102207Z 21010KT 13/M10 A3022 RMK A01 T01301098  RH  019%=      5-min Rain = 0
KBR1 102208Z 21009KT 13/M10 A3022 RMK A01 T01311099  RH  019%=      5-min Rain = 0
KBR1 102209Z 21009KT 13/M10 A3022 RMK A01 T01301100  RH  019%=      5-min Rain = 0
KBR1 102210Z 21008KT 13/M10 A3022 RMK A01 T01291102  RH  019%=      5-min Rain = 0
KBR1 102211Z 21008KT 13/M10 A3022 RMK A01 T01281102  RH  019%=      5-min Rain = 0
KBR1 102212Z 21007KT 13/M10 A3022 RMK A01 T01291101  RH  019%=      5-min Rain = 0
KBR1 102213Z 21009KT 13/M10 A3022 RMK A01 T01301097  RH  020%=      5-min Rain = 0
KBR1 102214Z 21008KT 13/M10 A3022 RMK A01 T01321096  RH  020%=      5-min Rain = 0
KBR1 102215Z 22008KT 13/M10 A3022 RMK A01 T01311095  RH  020%=      5-min Rain = 0
KBR1 102216Z 21007KT 13/M10 A3022 RMK A01 T01311096  RH  020%=      5-min Rain = 0
KBR1 102217Z 22007KT 13/M10 A3022 RMK A01 T01311098  RH  019%=      5-min Rain = 0
KBR1 102218Z 23010KT 13/M11 A3022 RMK A01 T01311108  RH  018%=      5-min Rain = 0
KBR1 102219Z 21009KT 13/M11 A3022 RMK A01 T01311105  RH  018%=      5-min Rain = 0
KBR1 102220Z 22008KT 13/M10 A3022 RMK A01 T01291101  RH  019%=      5-min Rain = 0
KBR1 102221Z 21007KT 13/M10 A3022 RMK A01 T01281101  RH  019%=      5-min Rain = 0
KBR1 102222Z 21009KT 13/M10 A3022 RMK A01 T01271099  RH  020%=      5-min Rain = 0
KBR1 102223Z 21010KT 13/M10 A3022 RMK A01 T01271098  RH  020%=      5-min Rain = 0
KBR1 102224Z 22009KT 13/M10 A3022 RMK A01 T01261099  RH  020%=      5-min Rain = 0
KBR1 102225Z 21008KT 13/M10 A3022 RMK A01 T01251098  RH  020%=      5-min Rain = 0
KBR1 102226Z 22008KT 13/M10 A3022 RMK A01 T01251096  RH  020%=      5-min Rain = 0
KBR1 102227Z 22008KT 13/M09 A3022 RMK A01 T01251093  RH  021%=      5-min Rain = 0
KBR1 102228Z 22009KT 13/M09 A3022 RMK A01 T01251091  RH  021%=      5-min Rain = 0
KBR1 102229Z 22007KT 12/M09 A3022 RMK A01 T01241089  RH  022%=      5-min Rain = 0
KBR1 102230Z 22008KT 12/M09 A3022 RMK A01 T01241088  RH  022%=      5-min Rain = 0
KBR1 102231Z 21010KT 12/M09 A3022 RMK A01 T01241088  RH  022%=      5-min Rain = 0
KBR1 102232Z 22009KT 12/M09 A3022 RMK A01 T01241087  RH  022%=      5-min Rain = 0
KBR1 102233Z 22007KT 12/M09 A3022 RMK A01 T01231088  RH  022%=      5-min Rain = 0
KBR1 102234Z 22008KT 12/M09 A3022 RMK A01 T01241088  RH  022%=      5-min Rain = 0
KBR1 102235Z 22009KT 12/M09 A3022 RMK A01 T01231092  RH  021%=      5-min Rain = 0
KBR1 102236Z 22009KT 12/M09 A3022 RMK A01 T01221094  RH  021%=      5-min Rain = 0
KBR1 102237Z 22009KT 12/M10 A3022 RMK A01 T01211095  RH  021%=      5-min Rain = 0
KBR1 102238Z 22009KT 12/M09 A3022 RMK A01 T01201094  RH  021%=      5-min Rain = 0
KBR1 102239Z 22008KT 12/M09 A3022 RMK A01 T01201092  RH  022%=      5-min Rain = 0
KBR1 102240Z 22007KT 12/M09 A3022 RMK A01 T01191091  RH  022%=      5-min Rain = 0
KBR1 102241Z 22007KT 12/M09 A3022 RMK A01 T01181090  RH  022%=      5-min Rain = 0
KBR1 102242Z 22006KT 12/M09 A3022 RMK A01 T01181089  RH  023%=      5-min Rain = 0
KBR1 102243Z 22007KT 12/M09 A3022 RMK A01 T01191088  RH  023%=      5-min Rain = 0
KBR1 102244Z 22007KT 12/M09 A3022 RMK A01 T01191088  RH  023%=      5-min Rain = 0
KBR1 102245Z 22007KT 12/M09 A3022 RMK A01 T01191085  RH  023%=      5-min Rain = 0
KBR1 102246Z 22007KT 12/M08 A3022 RMK A01 T01181084  RH  023%=      5-min Rain = 0
KBR1 102247Z 22007KT 12/M08 A3022 RMK A01 T01181083  RH  024%=      5-min Rain = 0
KBR1 102248Z 22007KT 12/M08 A3022 RMK A01 T01181082  RH  024%=      5-min Rain = 0
KBR1 102249Z 22006KT 12/M08 A3022 RMK A01 T01181082  RH  024%=      5-min Rain = 0
KBR1 102250Z 21006KT 12/M08 A3022 RMK A01 T01171083  RH  024%=      5-min Rain = 0
KBR1 102251Z 21008KT 12/M09 A3022 RMK A01 T01171085  RH  024%=      5-min Rain = 0
KBR1 102252Z 21007KT 12/M09 A3022 RMK A01 T01161086  RH  023%=      5-min Rain = 0
KBR1 102253Z 21007KT 12/M09 A3022 RMK A01 T01161086  RH  023%=      5-min Rain = 0
KBR1 102254Z 21007KT 12/M09 A3022 RMK A01 T01151086  RH  024%=      5-min Rain = 0
KBR1 102255Z 21006KT 11/M09 A3022 RMK A01 T01141086  RH  024%=      5-min Rain = 0
KBR1 102256Z 21006KT 11/M09 A3022 RMK A01 T01131086  RH  024%=      5-min Rain = 0
KBR1 102257Z 21006KT 11/M09 A3022 RMK A01 T01121086  RH  024%=      5-min Rain = 0
KBR1 102258Z 21006KT 11/M09 A3022 RMK A01 T01111086  RH  024%=      5-min Rain = 0
KBR1 102259Z 21006KT 11/M09 A3022 RMK A01 T01101086  RH  024%=      5-min Rain = 0
KBR1 102300Z 21006KT 11/M09 A3022 RMK A01 T01101086  RH  024%=      5-min Rain = 0
KBR1 102301Z 21006KT 11/M09 A3022 RMK A01 T01101085  RH  025%=      5-min Rain = 0
KBR1 102302Z 21006KT 11/M09 A3022 RMK A01 T01091085  RH  025%=      5-min Rain = 0
KBR1 102303Z 22006KT 11/M09 A3022 RMK A01 T01091085  RH  025%=      5-min Rain = 0
KBR1 102304Z 21006KT 11/M09 A3022 RMK A01 T01081085  RH  025%=      5-min Rain = 0
KBR1 102305Z 21006KT 11/M09 A3022 RMK A01 T01071086  RH  025%=      5-min Rain = 0
KBR1 102306Z 21006KT 11/M09 A3022 RMK A01 T01061086  RH  025%=      5-min Rain = 0
KBR1 102307Z 21006KT 10/M09 A3022 RMK A01 T01041086  RH  025%=      5-min Rain = 0
KBR1 102308Z 21005KT 10/M09 A3022 RMK A01 T01031087  RH  025%=      5-min Rain = 0
KBR1 102309Z 21005KT 10/M09 A3022 RMK A01 T01011087  RH  026%=      5-min Rain = 0
KBR1 102310Z 21005KT 10/M09 A3022 RMK A01 T00991088  RH  026%=      5-min Rain = 0
KBR1 102311Z 21005KT 10/M09 A3022 RMK A01 T00981088  RH  026%=      5-min Rain = 0
KBR1 102312Z 21005KT 10/M09 A3022 RMK A01 T00961088  RH  026%=      5-min Rain = 0
KBR1 102313Z 21005KT 09/M09 A3022 RMK A01 T00941089  RH  027%=      5-min Rain = 0
KBR1 102314Z 21005KT 09/M09 A3022 RMK A01 T00931089  RH  027%=      5-min Rain = 0
KBR1 102315Z 21005KT 09/M09 A3022 RMK A01 T00921089  RH  027%=      5-min Rain = 0
KBR1 102316Z 21004KT 09/M09 A3022 RMK A01 T00901090  RH  027%=      5-min Rain = 0
KBR1 102317Z 21004KT 09/M09 A3022 RMK A01 T00891090  RH  027%=      5-min Rain = 0
KBR1 102318Z 21004KT 09/M09 A3022 RMK A01 T00881090  RH  027%=      5-min Rain = 0
KBR1 102319Z 21004KT 09/M09 A3022 RMK A01 T00861091  RH  028%=      5-min Rain = 0
KBR1 102320Z 21004KT 09/M09 A3022 RMK A01 T00851090  RH  028%=      5-min Rain = 0
KBR1 102321Z 21004KT 09/M09 A3022 RMK A01 T00851090  RH  028%=      5-min Rain = 0
KBR1 102322Z 21004KT 09/M09 A3022 RMK A01 T00851090  RH  028%=      5-min Rain = 0
KBR1 102323Z 21004KT 09/M09 A3022 RMK A01 T00851089  RH  028%=      5-min Rain = 0
KBR1 102324Z 21004KT 09/M09 A3021 RMK A01 T00851089  RH  028%=      5-min Rain = 0
KBR1 102325Z 21004KT 08/M09 A3021 RMK A01 T00841090  RH  028%=      5-min Rain = 0
KBR1 102326Z 21004KT 08/M09 A3021 RMK A01 T00841090  RH  028%=      5-min Rain = 0
KBR1 102327Z 21004KT 08/M09 A3021 RMK A01 T00841091  RH  028%=      5-min Rain = 0
KBR1 102328Z 21004KT 08/M09 A3021 RMK A01 T00831091  RH  028%=      5-min Rain = 0
KBR1 102329Z 21004KT 08/M09 A3021 RMK A01 T00831090  RH  028%=      5-min Rain = 0
KBR1 102330Z 21005KT 08/M09 A3021 RMK A01 T00831091  RH  028%=      5-min Rain = 0
KBR1 102331Z 21005KT 08/M09 A3021 RMK A01 T00831090  RH  028%=      5-min Rain = 0
KBR1 102332Z 21005KT 08/M09 A3021 RMK A01 T00821091  RH  028%=      5-min Rain = 0
KBR1 102333Z 21005KT 08/M09 A3021 RMK A01 T00811091  RH  028%=      5-min Rain = 0
KBR1 102334Z 21004KT 08/M09 A3021 RMK A01 T00811091  RH  028%=      5-min Rain = 0
KBR1 102335Z 21004KT 08/M09 A3021 RMK A01 T00801091  RH  029%=      5-min Rain = 0
KBR1 102336Z 21004KT 08/M09 A3021 RMK A01 T00801091  RH  029%=      5-min Rain = 0
KBR1 102337Z 21004KT 08/M09 A3021 RMK A01 T00801091  RH  029%=      5-min Rain = 0
KBR1 102338Z 21004KT 08/M09 A3021 RMK A01 T00801091  RH  029%=      5-min Rain = 0
KBR1 102339Z 21004KT 08/M09 A3021 RMK A01 T00791091  RH  029%=      5-min Rain = 0
KBR1 102340Z 21004KT 08/M09 A3021 RMK A01 T00791091  RH  029%=      5-min Rain = 0
KBR1 102341Z 22004KT 08/M09 A3021 RMK A01 T00791091  RH  029%=      5-min Rain = 0
KBR1 102342Z 22004KT 08/M09 A3021 RMK A01 T00791091  RH  029%=      5-min Rain = 0
KBR1 102343Z 22004KT 08/M09 A3021 RMK A01 T00781091  RH  029%=      5-min Rain = 0
KBR1 102344Z 22004KT 08/M09 A3021 RMK A01 T00771092  RH  029%=      5-min Rain = 0
KBR1 102345Z 22004KT 08/M09 A3021 RMK A01 T00751092  RH  029%=      5-min Rain = 0
KBR1 102346Z 22004KT 07/M09 A3021 RMK A01 T00731093  RH  030%=      5-min Rain = 0
KBR1 102347Z 22004KT 07/M09 A3021 RMK A01 T00711093  RH  030%=      5-min Rain = 0
KBR1 102348Z 22004KT 07/M09 A3021 RMK A01 T00691093  RH  030%=      5-min Rain = 0
KBR1 102349Z 22003KT 07/M09 A3021 RMK A01 T00681093  RH  031%=      5-min Rain = 0
KBR1 102350Z 22003KT 07/M09 A3021 RMK A01 T00671093  RH  031%=      5-min Rain = 0
KBR1 102351Z 22003KT 07/M09 A3021 RMK A01 T00661093  RH  031%=      5-min Rain = 0
KBR1 102352Z 22003KT 07/M09 A3021 RMK A01 T00651093  RH  031%=      5-min Rain = 0
KBR1 102353Z 22003KT 06/M09 A3021 RMK A01 T00641094  RH  031%=      5-min Rain = 0
KBR1 102354Z 22003KT 06/M09 A302 RMK A01 T00631094  RH  032%=      5-min Rain = 0
KBR1 102355Z 22003KT 06/M09 A302 RMK A01 T00631093  RH  032%=      5-min Rain = 0
KBR1 102356Z 22003KT 06/M09 A302 RMK A01 T00631093  RH  032%=      5-min Rain = 0
KBR1 102357Z 22002KT 06/M09 A302 RMK A01 T00641092  RH  032%=      5-min Rain = 0
KBR1 102358Z 22002KT 06/M09 A302 RMK A01 T00641093  RH  032%=      5-min Rain = 0
KBR1 102359Z 22002KT 07/M09 A302 RMK A01 T00651092  RH  031%=      5-min Rain = 0
KBR1 110000Z 22002KT 07/M09 A302 RMK A01 T00651092  RH  031%=      5-min Rain = 0
KBR1 110001Z 22002KT 07/M09 A302 RMK A01 T00651092  RH  031%=      5-min Rain = 0
KBR1 110002Z 22002KT 07/M09 A302 RMK A01 T00661092  RH  031%=      5-min Rain = 0
KBR1 110003Z 22001KT 07/M09 A302 RMK A01 T00661093  RH  031%=      5-min Rain = 0
KBR1 110004Z 22001KT 07/M09 A302 RMK A01 T00651093  RH  031%=      5-min Rain = 0
KBR1 110005Z 22001KT 06/M09 A302 RMK A01 T00641094  RH  031%=      5-min Rain = 0
KBR1 110006Z 22001KT 06/M09 A302 RMK A01 T00621094  RH  032%=      5-min Rain = 0
KBR1 110007Z 22001KT 06/M10 A302 RMK A01 T00611095  RH  032%=      5-min Rain = 0
KBR1 110008Z 22001KT 06/M10 A302 RMK A01 T00611095  RH  032%=      5-min Rain = 0
KBR1 110009Z 22001KT 06/M09 A302 RMK A01 T00611094  RH  032%=      5-min Rain = 0
KBR1 110010Z 22002KT 06/M09 A302 RMK A01 T00601094  RH  032%=      5-min Rain = 0
KBR1 110011Z 24002KT 06/M09 A3021 RMK A01 T00601094  RH  032%=      5-min Rain = 0
KBR1 110012Z 24002KT 06/M10 A3021 RMK A01 T00591095  RH  032%=      5-min Rain = 0
KBR1 110013Z 23002KT 06/M10 A3021 RMK A01 T00591095  RH  032%=      5-min Rain = 0
KBR1 110014Z 23002KT 06/M09 A3021 RMK A01 T00581094  RH  032%=      5-min Rain = 0
KBR1 110015Z 23002KT 06/M09 A302 RMK A01 T00581094  RH  033%=      5-min Rain = 0
KBR1 110016Z 23002KT 06/M09 A3021 RMK A01 T00581094  RH  033%=      5-min Rain = 0
KBR1 110017Z 23002KT 06/M09 A3021 RMK A01 T00581094  RH  033%=      5-min Rain = 0
KBR1 110018Z 23002KT 06/M09 A3021 RMK A01 T00581094  RH  033%=      5-min Rain = 0
KBR1 110019Z 24002KT 06/M10 A3021 RMK A01 T00571095  RH  033%=      5-min Rain = 0
KBR1 110020Z 24002KT 06/M10 A3021 RMK A01 T00571095  RH  033%=      5-min Rain = 0
KBR1 110021Z 22002KT 06/M09 A3021 RMK A01 T00571094  RH  033%=      5-min Rain = 0
KBR1 110022Z 22002KT 06/M09 A3021 RMK A01 T00571094  RH  033%=      5-min Rain = 0
KBR1 110023Z 22002KT 06/M09 A3021 RMK A01 T00581093  RH  033%=      5-min Rain = 0
KBR1 110024Z 22002KT 06/M09 A3021 RMK A01 T00591093  RH  033%=      5-min Rain = 0
KBR1 110025Z 23002KT 06/M09 A3021 RMK A01 T00591093  RH  032%=      5-min Rain = 0
KBR1 110026Z 24002KT 06/M09 A3021 RMK A01 T00591094  RH  032%=      5-min Rain = 0
KBR1 110027Z 23002KT 06/M10 A3021 RMK A01 T00581095  RH  032%=      5-min Rain = 0
KBR1 110028Z 24002KT 06/M10 A3021 RMK A01 T00571095  RH  033%=      5-min Rain = 0
KBR1 110029Z 24002KT 06/M10 A3021 RMK A01 T00561095  RH  033%=      5-min Rain = 0
KBR1 110030Z 24002KT 05/M10 A3021 RMK A01 T00541095  RH  033%=      5-min Rain = 0
KBR1 110031Z 24002KT 05/M10 A3021 RMK A01 T00531095  RH  034%=      5-min Rain = 0
KBR1 110032Z 24002KT 05/M10 A3021 RMK A01 T00521095  RH  034%=      5-min Rain = 0
KBR1 110033Z 24002KT 05/M09 A3021 RMK A01 T00521094  RH  034%=      5-min Rain = 0
KBR1 110034Z 25002KT 05/M09 A3021 RMK A01 T00511094  RH  034%=      5-min Rain = 0
KBR1 110035Z 25003KT 05/M10 A3021 RMK A01 T00501095  RH  034%=      5-min Rain = 0
KBR1 110036Z 25003KT 05/M10 A3021 RMK A01 T00501095  RH  034%=      5-min Rain = 0
KBR1 110037Z 26003KT 05/M09 A3021 RMK A01 T00511094  RH  034%=      5-min Rain = 0
KBR1 110038Z 27003KT 05/M10 A3021 RMK A01 T00511095  RH  034%=      5-min Rain = 0
KBR1 110039Z 27002KT 05/M10 A3021 RMK A01 T00511096  RH  034%=      5-min Rain = 0
KBR1 110040Z 27002KT 05/M10 A3021 RMK A01 T00511096  RH  034%=      5-min Rain = 0
KBR1 110041Z 28003KT 05/M10 A3021 RMK A01 T00511096  RH  034%=      5-min Rain = 0
KBR1 110042Z 28003KT 05/M10 A3021 RMK A01 T00511095  RH  034%=      5-min Rain = 0
KBR1 110043Z 28003KT 05/M10 A3021 RMK A01 T00521095  RH  034%=      5-min Rain = 0
KBR1 110044Z 28003KT 05/M10 A3021 RMK A01 T00521095  RH  034%=      5-min Rain = 0
KBR1 110045Z 28003KT 05/M09 A3021 RMK A01 T00531094  RH  034%=      5-min Rain = 0
KBR1 110046Z 28003KT 05/M09 A3021 RMK A01 T00531094  RH  034%=      5-min Rain = 0
KBR1 110047Z 28003KT 05/M10 A3021 RMK A01 T00501095  RH  034%=      5-min Rain = 0
KBR1 110048Z 27003KT 05/M10 A3021 RMK A01 T00481096  RH  035%=      5-min Rain = 0
KBR1 110049Z 27003KT 05/M10 A3021 RMK A01 T00451096  RH  035%=      5-min Rain = 0
KBR1 110050Z 27003KT 04/M10 A3021 RMK A01 T00441096  RH  036%=      5-min Rain = 0
KBR1 110051Z 27003KT 04/M10 A3021 RMK A01 T00421096  RH  036%=      5-min Rain = 0
KBR1 110052Z 27003KT 04/M10 A3021 RMK A01 T00401096  RH  036%=      5-min Rain = 0
KBR1 110053Z 26003KT 04/M10 A3021 RMK A01 T00391096  RH  037%=      5-min Rain = 0
KBR1 110054Z 26003KT 04/M10 A3021 RMK A01 T00381096  RH  037%=      5-min Rain = 0
KBR1 110055Z 26003KT 04/M10 A3021 RMK A01 T00381096  RH  037%=      5-min Rain = 0
KBR1 110056Z 26003KT 04/M10 A3021 RMK A01 T00381096  RH  037%=      5-min Rain = 0
KBR1 110057Z 27003KT 04/M10 A3021 RMK A01 T00381096  RH  037%=      5-min Rain = 0
KBR1 110058Z 27003KT 04/M10 A3021 RMK A01 T00391096  RH  037%=      5-min Rain = 0
KBR1 110059Z 27003KT 04/M10 A3021 RMK A01 T00391096  RH  037%=      5-min Rain = 0
KBR1 110100Z 26003KT 04/M10 A3021 RMK A01 T00391096  RH  037%=      5-min Rain = 0
KBR1 110101Z 26003KT 04/M10 A3021 RMK A01 T00401095  RH  037%=      5-min Rain = 0
KBR1 110102Z 27003KT 04/M10 A3021 RMK A01 T00411095  RH  036%=      5-min Rain = 0
KBR1 110103Z 27002KT 04/M10 A3021 RMK A01 T00411096  RH  036%=      5-min Rain = 0
KBR1 110104Z 28002KT 04/M10 A3021 RMK A01 T00391096  RH  037%=      5-min Rain = 0
KBR1 110105Z 28001KT 04/M10 A3021 RMK A01 T00381096  RH  037%=      5-min Rain = 0
KBR1 110106Z 29001KT 04/M10 A3021 RMK A01 T00361096  RH  037%=      5-min Rain = 0
KBR1 110107Z 29001KT 03/M10 A3021 RMK A01 T00341096  RH  038%=      5-min Rain = 0
KBR1 110108Z 29001KT 03/M10 A3021 RMK A01 T00331096  RH  038%=      5-min Rain = 0
KBR1 110109Z 30001KT 03/M10 A3021 RMK A01 T00331096  RH  038%=      5-min Rain = 0
KBR1 110110Z 30001KT 03/M10 A3021 RMK A01 T00341095  RH  038%=      5-min Rain = 0
KBR1 110111Z 30001KT 03/M10 A3021 RMK A01 T00341095  RH  038%=      5-min Rain = 0
KBR1 110112Z 30001KT 03/M10 A3021 RMK A01 T00341095  RH  038%=      5-min Rain = 0
KBR1 110113Z 30001KT 04/M10 A3021 RMK A01 T00351095  RH  038%=      5-min Rain = 0
KBR1 110114Z 29000KT 04/M09 A3021 RMK A01 T00361094  RH  038%=      5-min Rain = 0
KBR1 110115Z 30001KT 04/M09 A3021 RMK A01 T00371094  RH  038%=      5-min Rain = 0
KBR1 110116Z 30001KT 04/M10 A3021 RMK A01 T00371095  RH  038%=      5-min Rain = 0
KBR1 110117Z 30001KT 04/M10 A3021 RMK A01 T00371095  RH  038%=      5-min Rain = 0
KBR1 110118Z 29001KT 04/M10 A3021 RMK A01 T00371095  RH  037%=      5-min Rain = 0
KBR1 110119Z 29001KT 04/M10 A3021 RMK A01 T00381095  RH  037%=      5-min Rain = 0
KBR1 110120Z 29001KT 04/M10 A3021 RMK A01 T00381095  RH  037%=      5-min Rain = 0
KBR1 110121Z 29001KT 04/M10 A3021 RMK A01 T00381095  RH  037%=      5-min Rain = 0
KBR1 110122Z 29001KT 04/M10 A3021 RMK A01 T00391095  RH  037%=      5-min Rain = 0
KBR1 110123Z 29001KT 04/M10 A3021 RMK A01 T00381095  RH  037%=      5-min Rain = 0
KBR1 110124Z 29001KT 04/M10 A3021 RMK A01 T00381096  RH  037%=      5-min Rain = 0
KBR1 110125Z 29001KT 04/M10 A3021 RMK A01 T00381096  RH  037%=      5-min Rain = 0
KBR1 110126Z 29001KT 04/M10 A3021 RMK A01 T00381096  RH  037%=      5-min Rain = 0
KBR1 110127Z 29001KT 04/M10 A3021 RMK A01 T00371096  RH  037%=      5-min Rain = 0
KBR1 110128Z 29001KT 04/M10 A3021 RMK A01 T00371096  RH  037%=      5-min Rain = 0
KBR1 110129Z 29000KT 04/M10 A3021 RMK A01 T00371096  RH  037%=      5-min Rain = 0
KBR1 110130Z 29000KT 04/M10 A3021 RMK A01 T00371097  RH  037%=      5-min Rain = 0
KBR1 110131Z 29000KT 04/M10 A3021 RMK A01 T00371097  RH  037%=      5-min Rain = 0
KBR1 110132Z 27000KT 04/M10 A3021 RMK A01 T00371097  RH  037%=      5-min Rain = 0
KBR1 110133Z 27000KT 04/M10 A3021 RMK A01 T00381097  RH  037%=      5-min Rain = 0
KBR1 110134Z 00000KT 04/M10 A3021 RMK A01 T00391097  RH  036%=      5-min Rain = 0
KBR1 110135Z 00000KT 04/M10 A3021 RMK A01 T00401097  RH  036%=      5-min Rain = 0
KBR1 110136Z 00000KT 04/M10 A3021 RMK A01 T00401097  RH  036%=      5-min Rain = 0
KBR1 110137Z 00000KT 04/M10 A3021 RMK A01 T00411097  RH  036%=      5-min Rain = 0
KBR1 110138Z 00000KT 04/M10 A3021 RMK A01 T00401097  RH  036%=      5-min Rain = 0
KBR1 110139Z 00000KT 04/M10 A3021 RMK A01 T00411097  RH  036%=      5-min Rain = 0
KBR1 110140Z 00000KT 04/M10 A3021 RMK A01 T00401097  RH  036%=      5-min Rain = 0
KBR1 110141Z 19000KT 04/M10 A3021 RMK A01 T00411097  RH  036%=      5-min Rain = 0
KBR1 110142Z 00000KT 04/M10 A3021 RMK A01 T00431096  RH  036%=      5-min Rain = 0
KBR1 110143Z 00000KT 05/M10 A3021 RMK A01 T00451096  RH  035%=      5-min Rain = 0
KBR1 110144Z 00000KT 05/M10 A3021 RMK A01 T00451097  RH  035%=      5-min Rain = 0
KBR1 110145Z 00000KT 05/M10 A3021 RMK A01 T00461097  RH  035%=      5-min Rain = 0
KBR1 110146Z 15001KT 05/M10 A3021 RMK A01 T00461097  RH  035%=      5-min Rain = 0
KBR1 110147Z 16002KT 05/M10 A3021 RMK A01 T00471097  RH  035%=      5-min Rain = 0
KBR1 110148Z 17002KT 05/M10 A3021 RMK A01 T00481096  RH  034%=      5-min Rain = 0
KBR1 110149Z 18001KT 05/M10 A3021 RMK A01 T00491097  RH  034%=      5-min Rain = 0
KBR1 110150Z 17002KT 05/M10 A3021 RMK A01 T00501097  RH  034%=      5-min Rain = 0
KBR1 110151Z 15002KT 05/M10 A3021 RMK A01 T00501098  RH  033%=      5-min Rain = 0
KBR1 110152Z 19001KT 04/M10 A3021 RMK A01 T00401103  RH  034%=      5-min Rain = 0
KBR1 110153Z 20001KT 03/M10 A3021 RMK A01 T00321103  RH  036%=      5-min Rain = 0
KBR1 110154Z 20001KT 03/M10 A3021 RMK A01 T00321100  RH  037%=      5-min Rain = 0
KBR1 110155Z 20002KT 04/M10 A3021 RMK A01 T00351098  RH  037%=      5-min Rain = 0
KBR1 110156Z 19002KT 04/M10 A3021 RMK A01 T00391096  RH  036%=      5-min Rain = 0
KBR1 110157Z 19002KT 04/M10 A3021 RMK A01 T00431096  RH  036%=      5-min Rain = 0
KBR1 110158Z 18003KT 05/M10 A3021 RMK A01 T00461096  RH  035%=      5-min Rain = 0
KBR1 110159Z 18003KT 05/M10 A3021 RMK A01 T00481097  RH  034%=      5-min Rain = 0
KBR1 110200Z 18004KT 05/M10 A3021 RMK A01 T00481098  RH  034%=      5-min Rain = 0
KBR1 110201Z 18005KT 05/M10 A3021 RMK A01 T00491098  RH  034%=      5-min Rain = 0
KBR1 110202Z 18006KT 05/M10 A3021 RMK A01 T00501098  RH  034%=      5-min Rain = 0
KBR1 110203Z 18006KT 05/M10 A3021 RMK A01 T00491098  RH  033%=      5-min Rain = 0
KBR1 110204Z 18005KT 05/M10 A3021 RMK A01 T00481099  RH  034%=      5-min Rain = 0
KBR1 110205Z 18005KT 05/M10 A3021 RMK A01 T00451100  RH  034%=      5-min Rain = 0
KBR1 110206Z 17005KT 04/M10 A3021 RMK A01 T00441099  RH  034%=      5-min Rain = 0
KBR1 110207Z 17006KT 04/M10 A3021 RMK A01 T00441099  RH  035%=      5-min Rain = 0
KBR1 110208Z 17006KT 04/M10 A3021 RMK A01 T00431099  RH  035%=      5-min Rain = 0
KBR1 110209Z 17006KT 04/M10 A3021 RMK A01 T00401100  RH  035%=      5-min Rain = 0
KBR1 110210Z 17006KT 04/M10 A3021 RMK A01 T00381100  RH  036%=      5-min Rain = 0
KBR1 110211Z 17006KT 04/M10 A3021 RMK A01 T00371099  RH  036%=      5-min Rain = 0
KBR1 110212Z 17006KT 04/M10 A3021 RMK A01 T00361099  RH  036%=      5-min Rain = 0
KBR1 110213Z 17007KT 04/M10 A3021 RMK A01 T00351099  RH  037%=      5-min Rain = 0
KBR1 110214Z 16007KT 03/M10 A3021 RMK A01 T00341099  RH  037%=      5-min Rain = 0
KBR1 110215Z 16007KT 03/M10 A3021 RMK A01 T00321099  RH  037%=      5-min Rain = 0
KBR1 110216Z 16008KT 03/M10 A3021 RMK A01 T00301099  RH  038%=      5-min Rain = 0
KBR1 110217Z 17008KT 03/M10 A3021 RMK A01 T00301098  RH  039%=      5-min Rain = 0
KBR1 110218Z 17008KT 03/M10 A3021 RMK A01 T00291097  RH  039%=      5-min Rain = 0
KBR1 110219Z 17008KT 03/M10 A3021 RMK A01 T00291096  RH  039%=      5-min Rain = 0
KBR1 110220Z 17008KT 03/M10 A3021 RMK A01 T00281095  RH  040%=      5-min Rain = 0
KBR1 110221Z 17008KT 03/M09 A3021 RMK A01 T00281094  RH  040%=      5-min Rain = 0
KBR1 110222Z 17008KT 03/M09 A3021 RMK A01 T00281094  RH  040%=      5-min Rain = 0
KBR1 110223Z 17008KT 03/M09 A3021 RMK A01 T00281094  RH  040%=      5-min Rain = 0
KBR1 110224Z 17008KT 03/M09 A3021 RMK A01 T00281094  RH  040%=      5-min Rain = 0
KBR1 110225Z 17008KT 03/M09 A3021 RMK A01 T00281094  RH  040%=      5-min Rain = 0
KBR1 110226Z 18008KT 03/M09 A3021 RMK A01 T00271094  RH  041%=      5-min Rain = 0
KBR1 110227Z 18008KT 03/M09 A3021 RMK A01 T00261094  RH  041%=      5-min Rain = 0
KBR1 110228Z 18008KT 02/M10 A3021 RMK A01 T00221095  RH  042%=      5-min Rain = 0
KBR1 110229Z 18008KT 02/M10 A3021 RMK A01 T00201095  RH  042%=      5-min Rain = 0
KBR1 110230Z 18008KT 02/M09 A3021 RMK A01 T00201093  RH  043%=      5-min Rain = 0
KBR1 110231Z 18008KT 02/M09 A3021 RMK A01 T00201092  RH  043%=      5-min Rain = 0
KBR1 110232Z 18008KT 02/M09 A3021 RMK A01 T00221091  RH  043%=      5-min Rain = 0
KBR1 110233Z 18007KT 02/M09 A3021 RMK A01 T00231091  RH  043%=      5-min Rain = 0
KBR1 110234Z 18007KT 02/M09 A3021 RMK A01 T00221091  RH  043%=      5-min Rain = 0
KBR1 110235Z 18006KT 02/M09 A3021 RMK A01 T00211092  RH  043%=      5-min Rain = 0
KBR1 110236Z 19006KT 02/M09 A3021 RMK A01 T00191093  RH  043%=      5-min Rain = 0
KBR1 110237Z 19004KT 02/M09 A3021 RMK A01 T00191092  RH  043%=      5-min Rain = 0
KBR1 110238Z 19005KT 02/M09 A3021 RMK A01 T00171094  RH  043%=      5-min Rain = 0
KBR1 110239Z 19004KT 02/M09 A3021 RMK A01 T00161094  RH  044%=      5-min Rain = 0
KBR1 110240Z 18004KT 01/M10 A3021 RMK A01 T00141095  RH  044%=      5-min Rain = 0
KBR1 110241Z 18004KT 01/M10 A3021 RMK A01 T00141095  RH  044%=      5-min Rain = 0
KBR1 110242Z 17004KT 01/M10 A3021 RMK A01 T00141095  RH  044%=      5-min Rain = 0
KBR1 110243Z 17004KT 01/M10 A3021 RMK A01 T00141095  RH  044%=      5-min Rain = 0
KBR1 110244Z 17005KT 01/M10 A3021 RMK A01 T00131095  RH  044%=      5-min Rain = 0
KBR1 110245Z 17005KT 01/M10 A3021 RMK A01 T00131095  RH  045%=      5-min Rain = 0
KBR1 110246Z 17006KT 01/M09 A3021 RMK A01 T00131094  RH  045%=      5-min Rain = 0
KBR1 110247Z 17006KT 01/M09 A3021 RMK A01 T00121094  RH  045%=      5-min Rain = 0
KBR1 110248Z 17006KT 01/M10 A3021 RMK A01 T00121095  RH  045%=      5-min Rain = 0
KBR1 110249Z 17007KT 01/M10 A3021 RMK A01 T00111096  RH  045%=      5-min Rain = 0
KBR1 110250Z 17007KT 01/M10 A3021 RMK A01 T00101096  RH  045%=      5-min Rain = 0
KBR1 110251Z 17007KT 01/M10 A3021 RMK A01 T00091096  RH  045%=      5-min Rain = 0
KBR1 110252Z 17006KT 01/M10 A3021 RMK A01 T00071096  RH  046%=      5-min Rain = 0
KBR1 110253Z 17006KT 01/M10 A3021 RMK A01 T00051096  RH  046%=      5-min Rain = 0
KBR1 110254Z 17006KT 00/M10 A3021 RMK A01 T00041096  RH  047%=      5-min Rain = 0
KBR1 110255Z 17006KT 00/M10 A3021 RMK A01 T00021096  RH  048%=      5-min Rain = 0
KBR1 110256Z 18007KT 00/M10 A3021 RMK A01 T00011096  RH  048%=      5-min Rain = 0
KBR1 110257Z 19004KT 00/M10 A3021 RMK A01 T00011095  RH  048%=      5-min Rain = 0
KBR1 110258Z 20004KT 00/M10 A3021 RMK A01 T00021095  RH  048%=      5-min Rain = 0
KBR1 110259Z 20005KT 00/M09 A3021 RMK A01 T00041093  RH  048%=      5-min Rain = 0
KBR1 110300Z 20004KT 01/M09 A3021 RMK A01 T00061093  RH  048%=      5-min Rain = 0
KBR1 110301Z 20003KT 01/M09 A3021 RMK A01 T00061094  RH  047%=      5-min Rain = 0
KBR1 110302Z 20004KT 01/M09 A3021 RMK A01 T00071094  RH  047%=      5-min Rain = 0
KBR1 110303Z 20004KT 01/M10 A3021 RMK A01 T00061096  RH  046%=      5-min Rain = 0
KBR1 110304Z 20004KT 01/M10 A3022 RMK A01 T00061096  RH  046%=      5-min Rain = 0
KBR1 110305Z 20004KT 01/M10 A3021 RMK A01 T00051097  RH  047%=      5-min Rain = 0
KBR1 110306Z 20004KT 00/M10 A3021 RMK A01 T00041097  RH  047%=      5-min Rain = 0
KBR1 110307Z 20004KT 00/M10 A3021 RMK A01 T00031097  RH  047%=      5-min Rain = 0
KBR1 110308Z 20004KT 00/M10 A3021 RMK A01 T00031097  RH  047%=      5-min Rain = 0
KBR1 110309Z 20004KT 00/M10 A3021 RMK A01 T00031097  RH  047%=      5-min Rain = 0
KBR1 110310Z 20003KT 00/M10 A3021 RMK A01 T00021096  RH  048%=      5-min Rain = 0
KBR1 110311Z 20003KT 00/M10 A3021 RMK A01 T00021096  RH  048%=      5-min Rain = 0
KBR1 110312Z 20003KT 00/M10 A3021 RMK A01 T00021097  RH  048%=      5-min Rain = 0
KBR1 110313Z 21003KT 00/M10 A3021 RMK A01 T00011097  RH  048%=      5-min Rain = 0
KBR1 110314Z 21003KT 00/M10 A3021 RMK A01 T00021097  RH  048%=      5-min Rain = 0
KBR1 110315Z 21003KT 00/M10 A3021 RMK A01 T00021097  RH  048%=      5-min Rain = 0
KBR1 110316Z 21003KT 00/M10 A3021 RMK A01 T00021097  RH  048%=      5-min Rain = 0
KBR1 110317Z 21003KT 00/M10 A3021 RMK A01 T00021097  RH  047%=      5-min Rain = 0
KBR1 110318Z 22004KT 00/M10 A3021 RMK A01 T00021097  RH  047%=      5-min Rain = 0
KBR1 110319Z 22004KT 00/M10 A3021 RMK A01 T00021097  RH  047%=      5-min Rain = 0
KBR1 110320Z 22003KT 00/M10 A3021 RMK A01 T00021097  RH  047%=      5-min Rain = 0
KBR1 110321Z 23003KT 00/M10 A3021 RMK A01 T00021098  RH  047%=      5-min Rain = 0
KBR1 110322Z 23003KT 00/M10 A3021 RMK A01 T00011098  RH  047%=      5-min Rain = 0
KBR1 110323Z 23003KT 00/10 A3021 RMK A01 T00000-99  RH  047%=      5-min Rain = 0
KBR1 110324Z 23003KT 00/10 A3021 RMK A01 T00-00-98  RH  048%=      5-min Rain = 0
KBR1 110325Z 23003KT 00/10 A3021 RMK A01 T00000-98  RH  048%=      5-min Rain = 0
KBR1 110326Z 23003KT M00/M10 A3021 RMK A01 T10011099  RH  048%=      5-min Rain = 0
KBR1 110327Z 24003KT M00/M10 A3022 RMK A01 T10041100  RH  048%=      5-min Rain = 0
KBR1 110328Z 24003KT M01/M10 A3022 RMK A01 T10091103  RH  049%=      5-min Rain = 0
KBR1 110329Z 24003KT M01/M10 A3022 RMK A01 T10131104  RH  050%=      5-min Rain = 0
KBR1 110330Z 25003KT M02/M10 A3022 RMK A01 T10161103  RH  051%=      5-min Rain = 0
KBR1 110331Z 25002KT M02/M10 A3022 RMK A01 T10171102  RH  052%=      5-min Rain = 0
KBR1 110332Z 24003KT M02/M10 A3022 RMK A01 T10181102  RH  053%=      5-min Rain = 0
KBR1 110333Z 23004KT M02/M10 A3022 RMK A01 T10181101  RH  053%=      5-min Rain = 0
KBR1 110334Z 23004KT M02/M10 A3021 RMK A01 T10171099  RH  053%=      5-min Rain = 0
KBR1 110335Z 23004KT M02/M10 A3021 RMK A01 T10151099  RH  053%=      5-min Rain = 0
KBR1 110336Z 24004KT M02/M10 A3021 RMK A01 T10151099  RH  053%=      5-min Rain = 0
KBR1 110337Z 24004KT M02/M10 A3021 RMK A01 T10151099  RH  053%=      5-min Rain = 0
KBR1 110338Z 24004KT M02/M10 A3021 RMK A01 T10151100  RH  053%=      5-min Rain = 0
KBR1 110339Z 24004KT M02/M10 A3021 RMK A01 T10151100  RH  052%=      5-min Rain = 0
KBR1 110340Z 24003KT M01/M10 A3021 RMK A01 T10141099  RH  052%=      5-min Rain = 0
KBR1 110341Z 24003KT M01/M10 A3021 RMK A01 T10131099  RH  052%=      5-min Rain = 0
KBR1 110342Z 24003KT M01/M10 A3021 RMK A01 T10121099  RH  052%=      5-min Rain = 0
KBR1 110343Z 24003KT M01/M10 A3021 RMK A01 T10121098  RH  052%=      5-min Rain = 0
KBR1 110344Z 23003KT M01/M10 A3021 RMK A01 T10111098  RH  052%=      5-min Rain = 0
KBR1 110345Z 23003KT M01/M10 A3021 RMK A01 T10101098  RH  051%=      5-min Rain = 0
KBR1 110346Z 23003KT M01/M10 A3021 RMK A01 T10111099  RH  051%=      5-min Rain = 0
KBR1 110347Z 23003KT M01/M10 A3021 RMK A01 T10121100  RH  051%=      5-min Rain = 0
KBR1 110348Z 23004KT M01/M10 A3021 RMK A01 T10131100  RH  051%=      5-min Rain = 0
KBR1 110349Z 23004KT M01/M10 A3021 RMK A01 T10141101  RH  052%=      5-min Rain = 0
KBR1 110350Z 24004KT M02/M10 A3022 RMK A01 T10151100  RH  052%=      5-min Rain = 0
KBR1 110351Z 24004KT M02/M10 A3022 RMK A01 T10161100  RH  053%=      5-min Rain = 0
KBR1 110352Z 24004KT M02/M10 A3022 RMK A01 T10161100  RH  053%=      5-min Rain = 0
KBR1 110353Z 23004KT M02/M10 A3022 RMK A01 T10171100  RH  053%=      5-min Rain = 0
KBR1 110354Z 23005KT M02/M10 A3021 RMK A01 T10161098  RH  054%=      5-min Rain = 0
KBR1 110355Z 23005KT M02/M10 A3021 RMK A01 T10151096  RH  054%=      5-min Rain = 0
KBR1 110356Z 23005KT M01/M10 A3021 RMK A01 T10131095  RH  054%=      5-min Rain = 0
KBR1 110357Z 24005KT M01/M09 A3021 RMK A01 T10111094  RH  054%=      5-min Rain = 0
KBR1 110358Z 24006KT M01/M09 A3021 RMK A01 T10101092  RH  054%=      5-min Rain = 0
KBR1 110359Z 24006KT M01/M09 A3021 RMK A01 T10091091  RH  054%=      5-min Rain = 0
KBR1 110400Z 24005KT M01/M09 A3021 RMK A01 T10091091  RH  054%=      5-min Rain = 0
KBR1 110401Z 24005KT M01/M09 A3021 RMK A01 T10091091  RH  054%=      5-min Rain = 0
KBR1 110402Z 24005KT M01/M09 A3021 RMK A01 T10091091  RH  054%=      5-min Rain = 0
KBR1 110403Z 24005KT M01/M09 A3021 RMK A01 T10111092  RH  054%=      5-min Rain = 0
KBR1 110404Z 24005KT M01/M09 A3021 RMK A01 T10111092  RH  054%=      5-min Rain = 0
KBR1 110405Z 24006KT M01/M09 A3021 RMK A01 T10121092  RH  054%=      5-min Rain = 0
KBR1 110406Z 24005KT M01/M09 A3021 RMK A01 T10121091  RH  055%=      5-min Rain = 0
KBR1 110407Z 25005KT M01/M09 A3021 RMK A01 T10121090  RH  055%=      5-min Rain = 0
KBR1 110408Z 25005KT M01/M09 A3021 RMK A01 T10121090  RH  055%=      5-min Rain = 0
KBR1 110409Z 25005KT M01/M09 A3021 RMK A01 T10111089  RH  055%=      5-min Rain = 0
KBR1 110410Z 25005KT M01/M09 A3021 RMK A01 T10111089  RH  055%=      5-min Rain = 0
KBR1 110411Z 25005KT M01/M09 A3021 RMK A01 T10111089  RH  055%=      5-min Rain = 0
KBR1 110412Z 25006KT M01/M09 A3021 RMK A01 T10111089  RH  056%=      5-min Rain = 0
KBR1 110413Z 25006KT M01/M09 A3021 RMK A01 T10121088  RH  056%=      5-min Rain = 0
KBR1 110414Z 25006KT M01/M09 A3021 RMK A01 T10121088  RH  056%=      5-min Rain = 0
KBR1 110415Z 25007KT M01/M09 A3021 RMK A01 T10141088  RH  057%=      5-min Rain = 0
KBR1 110416Z 25007KT M02/M09 A3021 RMK A01 T10151088  RH  058%=      5-min Rain = 0
KBR1 110417Z 25007KT M02/M09 A3021 RMK A01 T10171087  RH  059%=      5-min Rain = 0
KBR1 110418Z 25007KT M02/M09 A3021 RMK A01 T10171086  RH  059%=      5-min Rain = 0
KBR1 110419Z 25007KT M02/M09 A302 RMK A01 T10181086  RH  060%=      5-min Rain = 0
KBR1 110420Z 25007KT M02/M09 A302 RMK A01 T10181086  RH  060%=      5-min Rain = 0
KBR1 110421Z 25008KT M02/M09 A302 RMK A01 T10181086  RH  060%=      5-min Rain = 0
KBR1 110422Z 25007KT M02/M09 A302 RMK A01 T10191087  RH  060%=      5-min Rain = 0
KBR1 110423Z 25007KT M02/M09 A302 RMK A01 T10191087  RH  060%=      5-min Rain = 0
KBR1 110424Z 25007KT M02/M09 A302 RMK A01 T10201087  RH  060%=      5-min Rain = 0
KBR1 110425Z 25007KT M02/M09 A302 RMK A01 T10211088  RH  060%=      5-min Rain = 0
KBR1 110426Z 25007KT M02/M09 A302 RMK A01 T10231089  RH  060%=      5-min Rain = 0
KBR1 110427Z 25007KT M02/M09 A302 RMK A01 T10241089  RH  061%=      5-min Rain = 0
KBR1 110428Z 25007KT M03/M09 A302 RMK A01 T10251089  RH  062%=      5-min Rain = 0
KBR1 110429Z 25007KT M03/M09 A302 RMK A01 T10261088  RH  062%=      5-min Rain = 0
KBR1 110430Z 25007KT M03/M09 A302 RMK A01 T10261087  RH  063%=      5-min Rain = 0
KBR1 110431Z 25007KT M03/M09 A302 RMK A01 T10261086  RH  063%=      5-min Rain = 0
KBR1 110432Z 25007KT M03/M09 A302 RMK A01 T10261087  RH  063%=      5-min Rain = 0
KBR1 110433Z 25007KT M03/M09 A302 RMK A01 T10271088  RH  063%=      5-min Rain = 0
KBR1 110434Z 25007KT M03/M09 A302 RMK A01 T10271088  RH  063%=      5-min Rain = 0
KBR1 110435Z 25007KT M03/M09 A302 RMK A01 T10271087  RH  063%=      5-min Rain = 0
KBR1 110436Z 25007KT M03/M09 A302 RMK A01 T10271087  RH  063%=      5-min Rain = 0
KBR1 110437Z 25007KT M03/M09 A302 RMK A01 T10271088  RH  063%=      5-min Rain = 0
KBR1 110438Z 24007KT M03/M09 A302 RMK A01 T10271088  RH  063%=      5-min Rain = 0
KBR1 110439Z 25007KT M03/M09 A302 RMK A01 T10281088  RH  063%=      5-min Rain = 0
KBR1 110440Z 25007KT M03/M09 A302 RMK A01 T10271086  RH  064%=      5-min Rain = 0
KBR1 110441Z 25007KT M03/M09 A302 RMK A01 T10271086  RH  064%=      5-min Rain = 0
KBR1 110442Z 25007KT M03/M09 A302 RMK A01 T10271086  RH  064%=      5-min Rain = 0
KBR1 110443Z 24006KT M03/M09 A302 RMK A01 T10271087  RH  063%=      5-min Rain = 0
KBR1 110444Z 24006KT M03/M09 A302 RMK A01 T10291088  RH  064%=      5-min Rain = 0
KBR1 110445Z 24006KT M03/M09 A302 RMK A01 T10301089  RH  064%=      5-min Rain = 0
KBR1 110446Z 24006KT M03/M09 A302 RMK A01 T10311087  RH  065%=      5-min Rain = 0
KBR1 110447Z 24006KT M03/M09 A302 RMK A01 T10301086  RH  065%=      5-min Rain = 0
KBR1 110448Z 24006KT M03/M09 A302 RMK A01 T10291085  RH  066%=      5-min Rain = 0
KBR1 110449Z 23006KT M03/M08 A302 RMK A01 T10271083  RH  066%=      5-min Rain = 0
KBR1 110450Z 23006KT M03/M08 A302 RMK A01 T10251081  RH  065%=      5-min Rain = 0
KBR1 110451Z 23006KT M02/M08 A302 RMK A01 T10241081  RH  065%=      5-min Rain = 0
KBR1 110452Z 23005KT M02/M08 A302 RMK A01 T10231081  RH  065%=      5-min Rain = 0
KBR1 110453Z 23006KT M02/M08 A302 RMK A01 T10221080  RH  064%=      5-min Rain = 0
KBR1 110454Z 23006KT M02/M08 A302 RMK A01 T10201079  RH  064%=      5-min Rain = 0
KBR1 110455Z 23006KT M02/M08 A302 RMK A01 T10191079  RH  064%=      5-min Rain = 0
KBR1 110456Z 23006KT M02/M08 A302 RMK A01 T10191080  RH  063%=      5-min Rain = 0
KBR1 110457Z 23005KT M02/M08 A302 RMK A01 T10191080  RH  063%=      5-min Rain = 0
KBR1 110458Z 23005KT M02/M08 A302 RMK A01 T10201081  RH  063%=      5-min Rain = 0
KBR1 110459Z 23005KT M02/M08 A302 RMK A01 T10211081  RH  063%=      5-min Rain = 0
KBR1 110500Z 24005KT M02/M08 A302 RMK A01 T10211080  RH  064%=      5-min Rain = 0
KBR1 110501Z 24005KT M02/M08 A3019 RMK A01 T10201079  RH  064%=      5-min Rain = 0
KBR1 110502Z 24005KT M02/M08 A3019 RMK A01 T10191078  RH  064%=      5-min Rain = 0
KBR1 110503Z 24005KT M02/M08 A3019 RMK A01 T10181076  RH  064%=      5-min Rain = 0
KBR1 110504Z 24005KT M02/M08 A3019 RMK A01 T10171076  RH  064%=      5-min Rain = 0
KBR1 110505Z 23005KT M02/M08 A3019 RMK A01 T10161076  RH  064%=      5-min Rain = 0
KBR1 110506Z 23005KT M02/M08 A3019 RMK A01 T10171076  RH  064%=      5-min Rain = 0
KBR1 110507Z 24006KT M02/M08 A302 RMK A01 T10161075  RH  064%=      5-min Rain = 0
KBR1 110508Z 23007KT M02/M07 A302 RMK A01 T10151074  RH  064%=      5-min Rain = 0
KBR1 110509Z 24006KT M01/M07 A302 RMK A01 T10131073  RH  064%=      5-min Rain = 0
KBR1 110510Z 23005KT M01/M07 A3019 RMK A01 T10121071  RH  064%=      5-min Rain = 0
KBR1 110511Z 23005KT M01/M07 A3019 RMK A01 T10121072  RH  064%=      5-min Rain = 0
KBR1 110512Z 23005KT M01/M07 A3019 RMK A01 T10131074  RH  064%=      5-min Rain = 0
KBR1 110513Z 23005KT M01/M07 A3019 RMK A01 T10141073  RH  064%=      5-min Rain = 0
KBR1 110514Z 23005KT M02/M07 A3019 RMK A01 T10151074  RH  064%=      5-min Rain = 0
KBR1 110515Z 23006KT M02/M07 A3019 RMK A01 T10161074  RH  065%=      5-min Rain = 0
KBR1 110516Z 23006KT M02/M07 A3019 RMK A01 T10171074  RH  065%=      5-min Rain = 0
KBR1 110517Z 22006KT M02/M08 A3019 RMK A01 T10191075  RH  066%=      5-min Rain = 0
KBR1 110518Z 23006KT M02/M08 A3019 RMK A01 T10201075  RH  066%=      5-min Rain = 0
KBR1 110519Z 23005KT M02/M08 A3019 RMK A01 T10211075  RH  067%=      5-min Rain = 0
KBR1 110520Z 23005KT M02/M07 A3019 RMK A01 T10211074  RH  067%=      5-min Rain = 0
KBR1 110521Z 23005KT M02/M08 A3019 RMK A01 T10221075  RH  067%=      5-min Rain = 0
KBR1 110522Z 23005KT M02/M08 A3019 RMK A01 T10231075  RH  068%=      5-min Rain = 0
KBR1 110523Z 23005KT M02/M08 A3019 RMK A01 T10241075  RH  068%=      5-min Rain = 0
KBR1 110524Z 22005KT M03/M08 A3019 RMK A01 T10251075  RH  068%=      5-min Rain = 0
KBR1 110525Z 22005KT M03/M08 A3019 RMK A01 T10251075  RH  069%=      5-min Rain = 0
KBR1 110526Z 22005KT M03/M08 A3019 RMK A01 T10251075  RH  069%=      5-min Rain = 0
KBR1 110527Z 22005KT M03/M07 A3019 RMK A01 T10251074  RH  069%=      5-min Rain = 0
KBR1 110528Z 22005KT M03/M07 A3019 RMK A01 T10251074  RH  069%=      5-min Rain = 0
KBR1 110529Z 21005KT M03/M08 A3019 RMK A01 T10261075  RH  069%=      5-min Rain = 0
KBR1 110530Z 21005KT M03/M07 A3019 RMK A01 T10261074  RH  069%=      5-min Rain = 0
KBR1 110531Z 21005KT M03/M07 A3019 RMK A01 T10261074  RH  070%=      5-min Rain = 0
KBR1 110532Z 22005KT M03/M07 A3019 RMK A01 T10251073  RH  070%=      5-min Rain = 0
KBR1 110533Z 22005KT M03/M07 A3019 RMK A01 T10251073  RH  070%=      5-min Rain = 0
KBR1 110534Z 22005KT M02/M07 A3019 RMK A01 T10231071  RH  070%=      5-min Rain = 0
KBR1 110535Z 22005KT M02/M07 A3019 RMK A01 T10221071  RH  069%=      5-min Rain = 0
KBR1 110536Z 22005KT M02/M07 A3018 RMK A01 T10221072  RH  069%=      5-min Rain = 0
KBR1 110537Z 22005KT M02/M07 A3018 RMK A01 T10231073  RH  068%=      5-min Rain = 0
KBR1 110538Z 22005KT M03/M07 A3018 RMK A01 T10251074  RH  069%=      5-min Rain = 0
KBR1 110539Z 23006KT M03/M07 A3018 RMK A01 T10261074  RH  070%=      5-min Rain = 0
KBR1 110540Z 23006KT M03/M07 A3019 RMK A01 T10251072  RH  070%=      5-min Rain = 0
KBR1 110541Z 23006KT M02/M07 A3019 RMK A01 T10241072  RH  070%=      5-min Rain = 0
KBR1 110542Z 23006KT M02/M07 A3019 RMK A01 T10241072  RH  069%=      5-min Rain = 0
KBR1 110543Z 23006KT M02/M07 A3019 RMK A01 T10241073  RH  069%=      5-min Rain = 0
KBR1 110544Z 23006KT M03/M07 A3019 RMK A01 T10251074  RH  069%=      5-min Rain = 0
KBR1 110545Z 23006KT M03/M07 A3019 RMK A01 T10261074  RH  069%=      5-min Rain = 0
KBR1 110546Z 23006KT M03/M08 A3019 RMK A01 T10271075  RH  069%=      5-min Rain = 0
KBR1 110547Z 23006KT M03/M08 A3019 RMK A01 T10291077  RH  070%=      5-min Rain = 0
KBR1 110548Z 24006KT M03/M08 A3019 RMK A01 T10311077  RH  071%=      5-min Rain = 0
KBR1 110549Z 23006KT M03/M08 A3018 RMK A01 T10321076  RH  071%=      5-min Rain = 0
KBR1 110550Z 24006KT M03/M08 A3018 RMK A01 T10321076  RH  072%=      5-min Rain = 0
KBR1 110551Z 24006KT M03/M08 A3018 RMK A01 T10331076  RH  072%=      5-min Rain = 0
KBR1 110552Z 24005KT M03/M08 A3018 RMK A01 T10341076  RH  072%=      5-min Rain = 0
KBR1 110553Z 24005KT M03/M08 A3018 RMK A01 T10341076  RH  073%=      5-min Rain = 0
KBR1 110554Z 24005KT M03/M08 A3018 RMK A01 T10341076  RH  073%=      5-min Rain = 0
KBR1 110555Z 24005KT M04/M08 A3018 RMK A01 T10351076  RH  073%=      5-min Rain = 0
KBR1 110556Z 24005KT M04/M08 A3018 RMK A01 T10351075  RH  073%=      5-min Rain = 0
KBR1 110557Z 24005KT M03/M07 A3018 RMK A01 T10341074  RH  074%=      5-min Rain = 0
KBR1 110558Z 24004KT M03/M07 A3018 RMK A01 T10321073  RH  073%=      5-min Rain = 0
KBR1 110559Z 24005KT M03/M07 A3018 RMK A01 T10321074  RH  073%=      5-min Rain = 0

Page generated in 0.0325 seconds.